<?xml version="1.0" encoding="UTF-8" standalone="no" ?>
<gpx xmlns="http://www.topografix.com/GPX/1/1" xmlns:xsi="http://www.w3.org/2001/XMLSchema-instance" xsi:schemaLocation="http://www.topografix.com/GPX/1/1 http://www.topografix.com/GPX/1/1/gpx.xsd" version="1.1" creator="VisuGPX - https://www.visugpx.com">
  <metadata>
    <name>Villeneuve Loubet / Cagnes - Bord de mer</name>
    <desc><![CDATA[Nouveaux parcours entre Villeneuve et Cagnes]]></desc>
  </metadata>
  <trk>
    <name><![CDATA[Villeneuve Loubet / Cagnes - Bord de mer]]></name>
    <desc><![CDATA[Seconde sortie sur ce parcours pour tester les nouvelles Mizuno et le nouveau GPS. Il fait moins chaud, et c'est pas plus mal. Test de la connexion par le stade de Villeneuve, et ça le fait.]]></desc>
    <trkseg>
      <trkpt lat="43.65844" lon="7.1204">
        <ele>13.800000190735</ele>
        <time>2011-07-20T10:07:42.000Z</time>
      </trkpt>
      <trkpt lat="43.65848" lon="7.12041">
        <ele>14</ele>
        <time>2011-07-20T10:07:44.000Z</time>
      </trkpt>
      <trkpt lat="43.65853" lon="7.12035">
        <ele>14</ele>
        <time>2011-07-20T10:07:47.000Z</time>
      </trkpt>
      <trkpt lat="43.65862" lon="7.12032">
        <ele>14.39999961853</ele>
        <time>2011-07-20T10:07:51.000Z</time>
      </trkpt>
      <trkpt lat="43.65875" lon="7.12046">
        <ele>15</ele>
        <time>2011-07-20T10:07:56.000Z</time>
      </trkpt>
      <trkpt lat="43.65877" lon="7.12047">
        <ele>15.199999809265</ele>
        <time>2011-07-20T10:07:57.000Z</time>
      </trkpt>
      <trkpt lat="43.65882" lon="7.12046">
        <ele>15.199999809265</ele>
        <time>2011-07-20T10:07:59.000Z</time>
      </trkpt>
      <trkpt lat="43.65894" lon="7.12042">
        <ele>15.60000038147</ele>
        <time>2011-07-20T10:08:03.000Z</time>
      </trkpt>
      <trkpt lat="43.6591" lon="7.12052">
        <ele>16.799999237061</ele>
        <time>2011-07-20T10:08:08.000Z</time>
      </trkpt>
      <trkpt lat="43.65911" lon="7.12054">
        <ele>16.799999237061</ele>
        <time>2011-07-20T10:08:09.000Z</time>
      </trkpt>
      <trkpt lat="43.65912" lon="7.12055">
        <ele>17</ele>
        <time>2011-07-20T10:08:11.000Z</time>
      </trkpt>
      <trkpt lat="43.65913" lon="7.12053">
        <ele>17</ele>
        <time>2011-07-20T10:08:12.000Z</time>
      </trkpt>
      <trkpt lat="43.65923" lon="7.12044">
        <ele>17.39999961853</ele>
        <time>2011-07-20T10:08:16.000Z</time>
      </trkpt>
      <trkpt lat="43.65926" lon="7.12042">
        <ele>17.60000038147</ele>
        <time>2011-07-20T10:08:17.000Z</time>
      </trkpt>
      <trkpt lat="43.65935" lon="7.12028">
        <ele>17.60000038147</ele>
        <time>2011-07-20T10:08:22.000Z</time>
      </trkpt>
      <trkpt lat="43.65939" lon="7.12022">
        <ele>17.39999961853</ele>
        <time>2011-07-20T10:08:24.000Z</time>
      </trkpt>
      <trkpt lat="43.65946" lon="7.1201">
        <ele>16.799999237061</ele>
        <time>2011-07-20T10:08:28.000Z</time>
      </trkpt>
      <trkpt lat="43.65952" lon="7.12001">
        <ele>16.200000762939</ele>
        <time>2011-07-20T10:08:31.000Z</time>
      </trkpt>
      <trkpt lat="43.65953" lon="7.11995">
        <ele>15.800000190735</ele>
        <time>2011-07-20T10:08:33.000Z</time>
      </trkpt>
      <trkpt lat="43.65966" lon="7.11988">
        <ele>16.200000762939</ele>
        <time>2011-07-20T10:08:38.000Z</time>
      </trkpt>
      <trkpt lat="43.65969" lon="7.11987">
        <ele>16.200000762939</ele>
        <time>2011-07-20T10:08:39.000Z</time>
      </trkpt>
      <trkpt lat="43.65984" lon="7.11983">
        <ele>16.799999237061</ele>
        <time>2011-07-20T10:08:44.000Z</time>
      </trkpt>
      <trkpt lat="43.6599" lon="7.11983">
        <ele>17</ele>
        <time>2011-07-20T10:08:46.000Z</time>
      </trkpt>
      <trkpt lat="43.65999" lon="7.11982">
        <ele>17.39999961853</ele>
        <time>2011-07-20T10:08:49.000Z</time>
      </trkpt>
      <trkpt lat="43.66009" lon="7.11981">
        <ele>17.39999961853</ele>
        <time>2011-07-20T10:08:52.000Z</time>
      </trkpt>
      <trkpt lat="43.66024" lon="7.1198">
        <ele>17.200000762939</ele>
        <time>2011-07-20T10:08:57.000Z</time>
      </trkpt>
      <trkpt lat="43.66028" lon="7.11979">
        <ele>17.200000762939</ele>
        <time>2011-07-20T10:08:58.000Z</time>
      </trkpt>
      <trkpt lat="43.66047" lon="7.11979">
        <ele>17.200000762939</ele>
        <time>2011-07-20T10:09:04.000Z</time>
      </trkpt>
      <trkpt lat="43.66051" lon="7.11979">
        <ele>17.200000762939</ele>
        <time>2011-07-20T10:09:05.000Z</time>
      </trkpt>
      <trkpt lat="43.66068" lon="7.11979">
        <ele>17</ele>
        <time>2011-07-20T10:09:11.000Z</time>
      </trkpt>
      <trkpt lat="43.6607" lon="7.11978">
        <ele>17</ele>
        <time>2011-07-20T10:09:12.000Z</time>
      </trkpt>
      <trkpt lat="43.66087" lon="7.1198">
        <ele>17.200000762939</ele>
        <time>2011-07-20T10:09:18.000Z</time>
      </trkpt>
      <trkpt lat="43.66091" lon="7.11981">
        <ele>17.200000762939</ele>
        <time>2011-07-20T10:09:20.000Z</time>
      </trkpt>
      <trkpt lat="43.66103" lon="7.11984">
        <ele>17.200000762939</ele>
        <time>2011-07-20T10:09:24.000Z</time>
      </trkpt>
      <trkpt lat="43.66106" lon="7.11985">
        <ele>17.39999961853</ele>
        <time>2011-07-20T10:09:25.000Z</time>
      </trkpt>
      <trkpt lat="43.66123" lon="7.11993">
        <ele>17.60000038147</ele>
        <time>2011-07-20T10:09:31.000Z</time>
      </trkpt>
      <trkpt lat="43.66126" lon="7.11994">
        <ele>17.60000038147</ele>
        <time>2011-07-20T10:09:32.000Z</time>
      </trkpt>
      <trkpt lat="43.66139" lon="7.11999">
        <ele>17.60000038147</ele>
        <time>2011-07-20T10:09:37.000Z</time>
      </trkpt>
      <trkpt lat="43.66144" lon="7.12">
        <ele>17.39999961853</ele>
        <time>2011-07-20T10:09:39.000Z</time>
      </trkpt>
      <trkpt lat="43.66153" lon="7.12002">
        <ele>17.39999961853</ele>
        <time>2011-07-20T10:09:42.000Z</time>
      </trkpt>
      <trkpt lat="43.66163" lon="7.12002">
        <ele>17</ele>
        <time>2011-07-20T10:09:45.000Z</time>
      </trkpt>
      <trkpt lat="43.66166" lon="7.12001">
        <ele>17</ele>
        <time>2011-07-20T10:09:46.000Z</time>
      </trkpt>
      <trkpt lat="43.6618" lon="7.11991">
        <ele>16.39999961853</ele>
        <time>2011-07-20T10:09:51.000Z</time>
      </trkpt>
      <trkpt lat="43.66183" lon="7.1199">
        <ele>16.200000762939</ele>
        <time>2011-07-20T10:09:52.000Z</time>
      </trkpt>
      <trkpt lat="43.66197" lon="7.1198">
        <ele>15.800000190735</ele>
        <time>2011-07-20T10:09:57.000Z</time>
      </trkpt>
      <trkpt lat="43.66211" lon="7.11971">
        <ele>15.39999961853</ele>
        <time>2011-07-20T10:10:02.000Z</time>
      </trkpt>
      <trkpt lat="43.66213" lon="7.11969">
        <ele>15.199999809265</ele>
        <time>2011-07-20T10:10:03.000Z</time>
      </trkpt>
      <trkpt lat="43.66226" lon="7.11963">
        <ele>15</ele>
        <time>2011-07-20T10:10:07.000Z</time>
      </trkpt>
      <trkpt lat="43.66232" lon="7.11961">
        <ele>15</ele>
        <time>2011-07-20T10:10:09.000Z</time>
      </trkpt>
      <trkpt lat="43.66241" lon="7.1196">
        <ele>15</ele>
        <time>2011-07-20T10:10:12.000Z</time>
      </trkpt>
      <trkpt lat="43.66252" lon="7.11962">
        <ele>14.800000190735</ele>
        <time>2011-07-20T10:10:16.000Z</time>
      </trkpt>
      <trkpt lat="43.66255" lon="7.11961">
        <ele>14.800000190735</ele>
        <time>2011-07-20T10:10:17.000Z</time>
      </trkpt>
      <trkpt lat="43.66271" lon="7.11955">
        <ele>14.800000190735</ele>
        <time>2011-07-20T10:10:22.000Z</time>
      </trkpt>
      <trkpt lat="43.66274" lon="7.11954">
        <ele>14.800000190735</ele>
        <time>2011-07-20T10:10:23.000Z</time>
      </trkpt>
      <trkpt lat="43.66289" lon="7.11949">
        <ele>14.60000038147</ele>
        <time>2011-07-20T10:10:28.000Z</time>
      </trkpt>
      <trkpt lat="43.66292" lon="7.11947">
        <ele>14.60000038147</ele>
        <time>2011-07-20T10:10:29.000Z</time>
      </trkpt>
      <trkpt lat="43.66304" lon="7.11942">
        <ele>14.39999961853</ele>
        <time>2011-07-20T10:10:33.000Z</time>
      </trkpt>
      <trkpt lat="43.66307" lon="7.11941">
        <ele>14.39999961853</ele>
        <time>2011-07-20T10:10:34.000Z</time>
      </trkpt>
      <trkpt lat="43.66314" lon="7.11938">
        <ele>14.39999961853</ele>
        <time>2011-07-20T10:10:37.000Z</time>
      </trkpt>
      <trkpt lat="43.66324" lon="7.11949">
        <ele>14.39999961853</ele>
        <time>2011-07-20T10:10:41.000Z</time>
      </trkpt>
      <trkpt lat="43.66335" lon="7.11967">
        <ele>14.60000038147</ele>
        <time>2011-07-20T10:10:46.000Z</time>
      </trkpt>
      <trkpt lat="43.66337" lon="7.11971">
        <ele>14.800000190735</ele>
        <time>2011-07-20T10:10:47.000Z</time>
      </trkpt>
      <trkpt lat="43.66346" lon="7.11984">
        <ele>15.39999961853</ele>
        <time>2011-07-20T10:10:51.000Z</time>
      </trkpt>
      <trkpt lat="43.6635" lon="7.11991">
        <ele>15.800000190735</ele>
        <time>2011-07-20T10:10:53.000Z</time>
      </trkpt>
      <trkpt lat="43.66358" lon="7.12004">
        <ele>16.39999961853</ele>
        <time>2011-07-20T10:10:57.000Z</time>
      </trkpt>
      <trkpt lat="43.66361" lon="7.12011">
        <ele>16.799999237061</ele>
        <time>2011-07-20T10:10:59.000Z</time>
      </trkpt>
      <trkpt lat="43.66369" lon="7.1202">
        <ele>17.60000038147</ele>
        <time>2011-07-20T10:11:02.000Z</time>
      </trkpt>
      <trkpt lat="43.66375" lon="7.1203">
        <ele>18.39999961853</ele>
        <time>2011-07-20T10:11:05.000Z</time>
      </trkpt>
      <trkpt lat="43.66381" lon="7.1204">
        <ele>19</ele>
        <time>2011-07-20T10:11:08.000Z</time>
      </trkpt>
      <trkpt lat="43.66384" lon="7.12052">
        <ele>19.60000038147</ele>
        <time>2011-07-20T10:11:11.000Z</time>
      </trkpt>
      <trkpt lat="43.66384" lon="7.1206">
        <ele>19.799999237061</ele>
        <time>2011-07-20T10:11:13.000Z</time>
      </trkpt>
      <trkpt lat="43.66383" lon="7.12081">
        <ele>20.39999961853</ele>
        <time>2011-07-20T10:11:18.000Z</time>
      </trkpt>
      <trkpt lat="43.66383" lon="7.12106">
        <ele>21</ele>
        <time>2011-07-20T10:11:24.000Z</time>
      </trkpt>
      <trkpt lat="43.66382" lon="7.12131">
        <ele>21.60000038147</ele>
        <time>2011-07-20T10:11:30.000Z</time>
      </trkpt>
      <trkpt lat="43.66382" lon="7.12136">
        <ele>21.60000038147</ele>
        <time>2011-07-20T10:11:31.000Z</time>
      </trkpt>
      <trkpt lat="43.6638" lon="7.12159">
        <ele>22.200000762939</ele>
        <time>2011-07-20T10:11:37.000Z</time>
      </trkpt>
      <trkpt lat="43.66378" lon="7.12185">
        <ele>23</ele>
        <time>2011-07-20T10:11:43.000Z</time>
      </trkpt>
      <trkpt lat="43.66378" lon="7.12189">
        <ele>23.200000762939</ele>
        <time>2011-07-20T10:11:44.000Z</time>
      </trkpt>
      <trkpt lat="43.66375" lon="7.12209">
        <ele>24</ele>
        <time>2011-07-20T10:11:49.000Z</time>
      </trkpt>
      <trkpt lat="43.66373" lon="7.12217">
        <ele>24.200000762939</ele>
        <time>2011-07-20T10:11:51.000Z</time>
      </trkpt>
      <trkpt lat="43.66371" lon="7.12236">
        <ele>25</ele>
        <time>2011-07-20T10:11:56.000Z</time>
      </trkpt>
      <trkpt lat="43.6637" lon="7.12244">
        <ele>25.200000762939</ele>
        <time>2011-07-20T10:11:58.000Z</time>
      </trkpt>
      <trkpt lat="43.66367" lon="7.12264">
        <ele>26.39999961853</ele>
        <time>2011-07-20T10:12:03.000Z</time>
      </trkpt>
      <trkpt lat="43.66362" lon="7.12287">
        <ele>28.200000762939</ele>
        <time>2011-07-20T10:12:09.000Z</time>
      </trkpt>
      <trkpt lat="43.66362" lon="7.12291">
        <ele>28.39999961853</ele>
        <time>2011-07-20T10:12:10.000Z</time>
      </trkpt>
      <trkpt lat="43.66356" lon="7.12313">
        <ele>29.799999237061</ele>
        <time>2011-07-20T10:12:16.000Z</time>
      </trkpt>
      <trkpt lat="43.66355" lon="7.12317">
        <ele>30</ele>
        <time>2011-07-20T10:12:17.000Z</time>
      </trkpt>
      <trkpt lat="43.66348" lon="7.12339">
        <ele>31.39999961853</ele>
        <time>2011-07-20T10:12:23.000Z</time>
      </trkpt>
      <trkpt lat="43.66347" lon="7.12342">
        <ele>31.60000038147</ele>
        <time>2011-07-20T10:12:24.000Z</time>
      </trkpt>
      <trkpt lat="43.6634" lon="7.1236">
        <ele>32.799999237061</ele>
        <time>2011-07-20T10:12:29.000Z</time>
      </trkpt>
      <trkpt lat="43.66337" lon="7.12367">
        <ele>33.200000762939</ele>
        <time>2011-07-20T10:12:31.000Z</time>
      </trkpt>
      <trkpt lat="43.66332" lon="7.12377">
        <ele>34.200000762939</ele>
        <time>2011-07-20T10:12:34.000Z</time>
      </trkpt>
      <trkpt lat="43.66329" lon="7.12391">
        <ele>35.599998474121</ele>
        <time>2011-07-20T10:12:38.000Z</time>
      </trkpt>
      <trkpt lat="43.66328" lon="7.12395">
        <ele>36</ele>
        <time>2011-07-20T10:12:39.000Z</time>
      </trkpt>
      <trkpt lat="43.66325" lon="7.12417">
        <ele>38.200000762939</ele>
        <time>2011-07-20T10:12:45.000Z</time>
      </trkpt>
      <trkpt lat="43.66325" lon="7.12421">
        <ele>38.200000762939</ele>
        <time>2011-07-20T10:12:46.000Z</time>
      </trkpt>
      <trkpt lat="43.66325" lon="7.12443">
        <ele>38.799999237061</ele>
        <time>2011-07-20T10:12:52.000Z</time>
      </trkpt>
      <trkpt lat="43.66324" lon="7.12447">
        <ele>39</ele>
        <time>2011-07-20T10:12:53.000Z</time>
      </trkpt>
      <trkpt lat="43.66323" lon="7.12466">
        <ele>39.599998474121</ele>
        <time>2011-07-20T10:12:58.000Z</time>
      </trkpt>
      <trkpt lat="43.66323" lon="7.1247">
        <ele>39.599998474121</ele>
        <time>2011-07-20T10:12:59.000Z</time>
      </trkpt>
      <trkpt lat="43.66322" lon="7.12493">
        <ele>40.200000762939</ele>
        <time>2011-07-20T10:13:05.000Z</time>
      </trkpt>
      <trkpt lat="43.66322" lon="7.12497">
        <ele>40.400001525879</ele>
        <time>2011-07-20T10:13:06.000Z</time>
      </trkpt>
      <trkpt lat="43.66317" lon="7.12516">
        <ele>40</ele>
        <time>2011-07-20T10:13:11.000Z</time>
      </trkpt>
      <trkpt lat="43.66313" lon="7.12523">
        <ele>39.799999237061</ele>
        <time>2011-07-20T10:13:13.000Z</time>
      </trkpt>
      <trkpt lat="43.66306" lon="7.12537">
        <ele>39.799999237061</ele>
        <time>2011-07-20T10:13:17.000Z</time>
      </trkpt>
      <trkpt lat="43.66301" lon="7.12543">
        <ele>40</ele>
        <time>2011-07-20T10:13:19.000Z</time>
      </trkpt>
      <trkpt lat="43.66292" lon="7.12554">
        <ele>40.599998474121</ele>
        <time>2011-07-20T10:13:23.000Z</time>
      </trkpt>
      <trkpt lat="43.66288" lon="7.12562">
        <ele>40.799999237061</ele>
        <time>2011-07-20T10:13:25.000Z</time>
      </trkpt>
      <trkpt lat="43.6628" lon="7.12574">
        <ele>41.400001525879</ele>
        <time>2011-07-20T10:13:29.000Z</time>
      </trkpt>
      <trkpt lat="43.66273" lon="7.12582">
        <ele>42.200000762939</ele>
        <time>2011-07-20T10:13:32.000Z</time>
      </trkpt>
      <trkpt lat="43.66269" lon="7.12588">
        <ele>42.200000762939</ele>
        <time>2011-07-20T10:13:34.000Z</time>
      </trkpt>
      <trkpt lat="43.6626" lon="7.12599">
        <ele>42.400001525879</ele>
        <time>2011-07-20T10:13:38.000Z</time>
      </trkpt>
      <trkpt lat="43.66257" lon="7.12601">
        <ele>42.599998474121</ele>
        <time>2011-07-20T10:13:39.000Z</time>
      </trkpt>
      <trkpt lat="43.66243" lon="7.12611">
        <ele>44.400001525879</ele>
        <time>2011-07-20T10:13:44.000Z</time>
      </trkpt>
      <trkpt lat="43.6623" lon="7.12622">
        <ele>47.200000762939</ele>
        <time>2011-07-20T10:13:49.000Z</time>
      </trkpt>
      <trkpt lat="43.66228" lon="7.12625">
        <ele>47.400001525879</ele>
        <time>2011-07-20T10:13:50.000Z</time>
      </trkpt>
      <trkpt lat="43.66213" lon="7.12641">
        <ele>49.599998474121</ele>
        <time>2011-07-20T10:13:56.000Z</time>
      </trkpt>
      <trkpt lat="43.66199" lon="7.12656">
        <ele>51.200000762939</ele>
        <time>2011-07-20T10:14:02.000Z</time>
      </trkpt>
      <trkpt lat="43.66197" lon="7.12659">
        <ele>51.400001525879</ele>
        <time>2011-07-20T10:14:03.000Z</time>
      </trkpt>
      <trkpt lat="43.66185" lon="7.12677">
        <ele>51.400001525879</ele>
        <time>2011-07-20T10:14:09.000Z</time>
      </trkpt>
      <trkpt lat="43.66183" lon="7.12681">
        <ele>51.200000762939</ele>
        <time>2011-07-20T10:14:10.000Z</time>
      </trkpt>
      <trkpt lat="43.66172" lon="7.12695">
        <ele>50.400001525879</ele>
        <time>2011-07-20T10:14:15.000Z</time>
      </trkpt>
      <trkpt lat="43.66169" lon="7.12698">
        <ele>50.200000762939</ele>
        <time>2011-07-20T10:14:16.000Z</time>
      </trkpt>
      <trkpt lat="43.66154" lon="7.12714">
        <ele>50.400001525879</ele>
        <time>2011-07-20T10:14:22.000Z</time>
      </trkpt>
      <trkpt lat="43.66141" lon="7.12734">
        <ele>49.799999237061</ele>
        <time>2011-07-20T10:14:28.000Z</time>
      </trkpt>
      <trkpt lat="43.66139" lon="7.12737">
        <ele>49.599998474121</ele>
        <time>2011-07-20T10:14:29.000Z</time>
      </trkpt>
      <trkpt lat="43.66127" lon="7.12751">
        <ele>50</ele>
        <time>2011-07-20T10:14:34.000Z</time>
      </trkpt>
      <trkpt lat="43.66123" lon="7.12756">
        <ele>50.400001525879</ele>
        <time>2011-07-20T10:14:36.000Z</time>
      </trkpt>
      <trkpt lat="43.66113" lon="7.12768">
        <ele>50.799999237061</ele>
        <time>2011-07-20T10:14:40.000Z</time>
      </trkpt>
      <trkpt lat="43.66108" lon="7.12773">
        <ele>51.200000762939</ele>
        <time>2011-07-20T10:14:42.000Z</time>
      </trkpt>
      <trkpt lat="43.66099" lon="7.12789">
        <ele>50</ele>
        <time>2011-07-20T10:14:46.000Z</time>
      </trkpt>
      <trkpt lat="43.66097" lon="7.12792">
        <ele>49.599998474121</ele>
        <time>2011-07-20T10:14:47.000Z</time>
      </trkpt>
      <trkpt lat="43.66088" lon="7.12802">
        <ele>49.400001525879</ele>
        <time>2011-07-20T10:14:51.000Z</time>
      </trkpt>
      <trkpt lat="43.66085" lon="7.12805">
        <ele>49.200000762939</ele>
        <time>2011-07-20T10:14:52.000Z</time>
      </trkpt>
      <trkpt lat="43.66073" lon="7.1282">
        <ele>47.400001525879</ele>
        <time>2011-07-20T10:14:57.000Z</time>
      </trkpt>
      <trkpt lat="43.66071" lon="7.12821">
        <ele>47.400001525879</ele>
        <time>2011-07-20T10:14:58.000Z</time>
      </trkpt>
      <trkpt lat="43.66057" lon="7.1283">
        <ele>47.400001525879</ele>
        <time>2011-07-20T10:15:03.000Z</time>
      </trkpt>
      <trkpt lat="43.66054" lon="7.12833">
        <ele>47.200000762939</ele>
        <time>2011-07-20T10:15:04.000Z</time>
      </trkpt>
      <trkpt lat="43.66044" lon="7.12843">
        <ele>47.400001525879</ele>
        <time>2011-07-20T10:15:08.000Z</time>
      </trkpt>
      <trkpt lat="43.66039" lon="7.12848">
        <ele>47.599998474121</ele>
        <time>2011-07-20T10:15:10.000Z</time>
      </trkpt>
      <trkpt lat="43.66028" lon="7.12859">
        <ele>47.799999237061</ele>
        <time>2011-07-20T10:15:14.000Z</time>
      </trkpt>
      <trkpt lat="43.66023" lon="7.12866">
        <ele>47.799999237061</ele>
        <time>2011-07-20T10:15:16.000Z</time>
      </trkpt>
      <trkpt lat="43.66013" lon="7.12877">
        <ele>47.799999237061</ele>
        <time>2011-07-20T10:15:20.000Z</time>
      </trkpt>
      <trkpt lat="43.66009" lon="7.12884">
        <ele>47.599998474121</ele>
        <time>2011-07-20T10:15:22.000Z</time>
      </trkpt>
      <trkpt lat="43.66006" lon="7.12896">
        <ele>46.599998474121</ele>
        <time>2011-07-20T10:15:25.000Z</time>
      </trkpt>
      <trkpt lat="43.66005" lon="7.12909">
        <ele>45.200000762939</ele>
        <time>2011-07-20T10:15:28.000Z</time>
      </trkpt>
      <trkpt lat="43.66005" lon="7.12921">
        <ele>43.799999237061</ele>
        <time>2011-07-20T10:15:31.000Z</time>
      </trkpt>
      <trkpt lat="43.66003" lon="7.12934">
        <ele>43</ele>
        <time>2011-07-20T10:15:34.000Z</time>
      </trkpt>
      <trkpt lat="43.66" lon="7.12943">
        <ele>42.599998474121</ele>
        <time>2011-07-20T10:15:36.000Z</time>
      </trkpt>
      <trkpt lat="43.65994" lon="7.12957">
        <ele>41.799999237061</ele>
        <time>2011-07-20T10:15:40.000Z</time>
      </trkpt>
      <trkpt lat="43.65993" lon="7.12961">
        <ele>41.599998474121</ele>
        <time>2011-07-20T10:15:41.000Z</time>
      </trkpt>
      <trkpt lat="43.6599" lon="7.12977">
        <ele>41</ele>
        <time>2011-07-20T10:15:45.000Z</time>
      </trkpt>
      <trkpt lat="43.65989" lon="7.12982">
        <ele>40.799999237061</ele>
        <time>2011-07-20T10:15:46.000Z</time>
      </trkpt>
      <trkpt lat="43.65985" lon="7.12999">
        <ele>40.599998474121</ele>
        <time>2011-07-20T10:15:50.000Z</time>
      </trkpt>
      <trkpt lat="43.65981" lon="7.13007">
        <ele>40.799999237061</ele>
        <time>2011-07-20T10:15:52.000Z</time>
      </trkpt>
      <trkpt lat="43.65973" lon="7.1302">
        <ele>41</ele>
        <time>2011-07-20T10:15:56.000Z</time>
      </trkpt>
      <trkpt lat="43.65969" lon="7.13027">
        <ele>41.200000762939</ele>
        <time>2011-07-20T10:15:58.000Z</time>
      </trkpt>
      <trkpt lat="43.65962" lon="7.13038">
        <ele>41.599998474121</ele>
        <time>2011-07-20T10:16:01.000Z</time>
      </trkpt>
      <trkpt lat="43.65956" lon="7.13048">
        <ele>42</ele>
        <time>2011-07-20T10:16:04.000Z</time>
      </trkpt>
      <trkpt lat="43.65952" lon="7.13054">
        <ele>42.599998474121</ele>
        <time>2011-07-20T10:16:06.000Z</time>
      </trkpt>
      <trkpt lat="43.65944" lon="7.1307">
        <ele>43</ele>
        <time>2011-07-20T10:16:10.000Z</time>
      </trkpt>
      <trkpt lat="43.65943" lon="7.13074">
        <ele>43</ele>
        <time>2011-07-20T10:16:11.000Z</time>
      </trkpt>
      <trkpt lat="43.65933" lon="7.13092">
        <ele>43</ele>
        <time>2011-07-20T10:16:16.000Z</time>
      </trkpt>
      <trkpt lat="43.65924" lon="7.13109">
        <ele>42.200000762939</ele>
        <time>2011-07-20T10:16:21.000Z</time>
      </trkpt>
      <trkpt lat="43.65922" lon="7.13115">
        <ele>41.599998474121</ele>
        <time>2011-07-20T10:16:23.000Z</time>
      </trkpt>
      <trkpt lat="43.65919" lon="7.13124">
        <ele>40.599998474121</ele>
        <time>2011-07-20T10:16:25.000Z</time>
      </trkpt>
      <trkpt lat="43.65913" lon="7.13139">
        <ele>39.400001525879</ele>
        <time>2011-07-20T10:16:29.000Z</time>
      </trkpt>
      <trkpt lat="43.6591" lon="7.13149">
        <ele>38.799999237061</ele>
        <time>2011-07-20T10:16:31.000Z</time>
      </trkpt>
      <trkpt lat="43.65904" lon="7.13166">
        <ele>38.200000762939</ele>
        <time>2011-07-20T10:16:35.000Z</time>
      </trkpt>
      <trkpt lat="43.65899" lon="7.13178">
        <ele>38.599998474121</ele>
        <time>2011-07-20T10:16:38.000Z</time>
      </trkpt>
      <trkpt lat="43.65896" lon="7.1319">
        <ele>39</ele>
        <time>2011-07-20T10:16:41.000Z</time>
      </trkpt>
      <trkpt lat="43.65894" lon="7.13197">
        <ele>39.400001525879</ele>
        <time>2011-07-20T10:16:43.000Z</time>
      </trkpt>
      <trkpt lat="43.6589" lon="7.13215">
        <ele>39.799999237061</ele>
        <time>2011-07-20T10:16:47.000Z</time>
      </trkpt>
      <trkpt lat="43.65888" lon="7.13224">
        <ele>39.799999237061</ele>
        <time>2011-07-20T10:16:49.000Z</time>
      </trkpt>
      <trkpt lat="43.65886" lon="7.13242">
        <ele>39.799999237061</ele>
        <time>2011-07-20T10:16:53.000Z</time>
      </trkpt>
      <trkpt lat="43.65884" lon="7.13256">
        <ele>39.599998474121</ele>
        <time>2011-07-20T10:16:56.000Z</time>
      </trkpt>
      <trkpt lat="43.65885" lon="7.13271">
        <ele>38.400001525879</ele>
        <time>2011-07-20T10:16:59.000Z</time>
      </trkpt>
      <trkpt lat="43.65885" lon="7.1328">
        <ele>37.799999237061</ele>
        <time>2011-07-20T10:17:01.000Z</time>
      </trkpt>
      <trkpt lat="43.65884" lon="7.13298">
        <ele>37</ele>
        <time>2011-07-20T10:17:05.000Z</time>
      </trkpt>
      <trkpt lat="43.65883" lon="7.13302">
        <ele>37</ele>
        <time>2011-07-20T10:17:06.000Z</time>
      </trkpt>
      <trkpt lat="43.65881" lon="7.13324">
        <ele>36.200000762939</ele>
        <time>2011-07-20T10:17:11.000Z</time>
      </trkpt>
      <trkpt lat="43.6588" lon="7.13328">
        <ele>36.400001525879</ele>
        <time>2011-07-20T10:17:12.000Z</time>
      </trkpt>
      <trkpt lat="43.65875" lon="7.1335">
        <ele>37.200000762939</ele>
        <time>2011-07-20T10:17:17.000Z</time>
      </trkpt>
      <trkpt lat="43.65875" lon="7.13354">
        <ele>37.599998474121</ele>
        <time>2011-07-20T10:17:18.000Z</time>
      </trkpt>
      <trkpt lat="43.65872" lon="7.13375">
        <ele>38.400001525879</ele>
        <time>2011-07-20T10:17:23.000Z</time>
      </trkpt>
      <trkpt lat="43.65871" lon="7.13383">
        <ele>38.599998474121</ele>
        <time>2011-07-20T10:17:25.000Z</time>
      </trkpt>
      <trkpt lat="43.6587" lon="7.134">
        <ele>39.200000762939</ele>
        <time>2011-07-20T10:17:29.000Z</time>
      </trkpt>
      <trkpt lat="43.65868" lon="7.13414">
        <ele>39.799999237061</ele>
        <time>2011-07-20T10:17:32.000Z</time>
      </trkpt>
      <trkpt lat="43.65865" lon="7.13427">
        <ele>40.200000762939</ele>
        <time>2011-07-20T10:17:35.000Z</time>
      </trkpt>
      <trkpt lat="43.65863" lon="7.13435">
        <ele>40.599998474121</ele>
        <time>2011-07-20T10:17:37.000Z</time>
      </trkpt>
      <trkpt lat="43.65855" lon="7.13453">
        <ele>41.599998474121</ele>
        <time>2011-07-20T10:17:42.000Z</time>
      </trkpt>
      <trkpt lat="43.65851" lon="7.13475">
        <ele>41.400001525879</ele>
        <time>2011-07-20T10:17:47.000Z</time>
      </trkpt>
      <trkpt lat="43.65851" lon="7.1348">
        <ele>41</ele>
        <time>2011-07-20T10:17:48.000Z</time>
      </trkpt>
      <trkpt lat="43.65848" lon="7.13501">
        <ele>40.400001525879</ele>
        <time>2011-07-20T10:17:53.000Z</time>
      </trkpt>
      <trkpt lat="43.65848" lon="7.13506">
        <ele>40.200000762939</ele>
        <time>2011-07-20T10:17:54.000Z</time>
      </trkpt>
      <trkpt lat="43.65846" lon="7.13524">
        <ele>40.599998474121</ele>
        <time>2011-07-20T10:17:58.000Z</time>
      </trkpt>
      <trkpt lat="43.65846" lon="7.13534">
        <ele>40.400001525879</ele>
        <time>2011-07-20T10:18:00.000Z</time>
      </trkpt>
      <trkpt lat="43.65846" lon="7.13543">
        <ele>40</ele>
        <time>2011-07-20T10:18:02.000Z</time>
      </trkpt>
      <trkpt lat="43.6585" lon="7.1356">
        <ele>38.599998474121</ele>
        <time>2011-07-20T10:18:06.000Z</time>
      </trkpt>
      <trkpt lat="43.65853" lon="7.13569">
        <ele>37.400001525879</ele>
        <time>2011-07-20T10:18:08.000Z</time>
      </trkpt>
      <trkpt lat="43.65858" lon="7.13586">
        <ele>36</ele>
        <time>2011-07-20T10:18:12.000Z</time>
      </trkpt>
      <trkpt lat="43.6586" lon="7.13595">
        <ele>35.400001525879</ele>
        <time>2011-07-20T10:18:14.000Z</time>
      </trkpt>
      <trkpt lat="43.65865" lon="7.13611">
        <ele>34.200000762939</ele>
        <time>2011-07-20T10:18:18.000Z</time>
      </trkpt>
      <trkpt lat="43.65866" lon="7.13615">
        <ele>34</ele>
        <time>2011-07-20T10:18:19.000Z</time>
      </trkpt>
      <trkpt lat="43.6587" lon="7.13635">
        <ele>32.599998474121</ele>
        <time>2011-07-20T10:18:24.000Z</time>
      </trkpt>
      <trkpt lat="43.65871" lon="7.13639">
        <ele>32.400001525879</ele>
        <time>2011-07-20T10:18:25.000Z</time>
      </trkpt>
      <trkpt lat="43.65875" lon="7.13654">
        <ele>31.39999961853</ele>
        <time>2011-07-20T10:18:29.000Z</time>
      </trkpt>
      <trkpt lat="43.65877" lon="7.13661">
        <ele>30.60000038147</ele>
        <time>2011-07-20T10:18:31.000Z</time>
      </trkpt>
      <trkpt lat="43.65877" lon="7.13675">
        <ele>31</ele>
        <time>2011-07-20T10:18:34.000Z</time>
      </trkpt>
      <trkpt lat="43.65879" lon="7.13687">
        <ele>30.60000038147</ele>
        <time>2011-07-20T10:18:37.000Z</time>
      </trkpt>
      <trkpt lat="43.65881" lon="7.13691">
        <ele>30.200000762939</ele>
        <time>2011-07-20T10:18:38.000Z</time>
      </trkpt>
      <trkpt lat="43.65889" lon="7.13711">
        <ele>27.799999237061</ele>
        <time>2011-07-20T10:18:43.000Z</time>
      </trkpt>
      <trkpt lat="43.6589" lon="7.13735">
        <ele>27.60000038147</ele>
        <time>2011-07-20T10:18:48.000Z</time>
      </trkpt>
      <trkpt lat="43.6589" lon="7.1374">
        <ele>28</ele>
        <time>2011-07-20T10:18:49.000Z</time>
      </trkpt>
      <trkpt lat="43.65888" lon="7.13768">
        <ele>28.39999961853</ele>
        <time>2011-07-20T10:18:55.000Z</time>
      </trkpt>
      <trkpt lat="43.65888" lon="7.13773">
        <ele>28.39999961853</ele>
        <time>2011-07-20T10:18:56.000Z</time>
      </trkpt>
      <trkpt lat="43.65887" lon="7.13796">
        <ele>28</ele>
        <time>2011-07-20T10:19:01.000Z</time>
      </trkpt>
      <trkpt lat="43.65888" lon="7.13823">
        <ele>27</ele>
        <time>2011-07-20T10:19:07.000Z</time>
      </trkpt>
      <trkpt lat="43.65887" lon="7.13851">
        <ele>25.799999237061</ele>
        <time>2011-07-20T10:19:13.000Z</time>
      </trkpt>
      <trkpt lat="43.65887" lon="7.13855">
        <ele>25.60000038147</ele>
        <time>2011-07-20T10:19:14.000Z</time>
      </trkpt>
      <trkpt lat="43.65886" lon="7.13878">
        <ele>24</ele>
        <time>2011-07-20T10:19:19.000Z</time>
      </trkpt>
      <trkpt lat="43.65886" lon="7.13883">
        <ele>23.60000038147</ele>
        <time>2011-07-20T10:19:20.000Z</time>
      </trkpt>
      <trkpt lat="43.65883" lon="7.13905">
        <ele>22.200000762939</ele>
        <time>2011-07-20T10:19:25.000Z</time>
      </trkpt>
      <trkpt lat="43.65883" lon="7.13909">
        <ele>22</ele>
        <time>2011-07-20T10:19:26.000Z</time>
      </trkpt>
      <trkpt lat="43.65878" lon="7.1393">
        <ele>21.39999961853</ele>
        <time>2011-07-20T10:19:31.000Z</time>
      </trkpt>
      <trkpt lat="43.65877" lon="7.13934">
        <ele>21.200000762939</ele>
        <time>2011-07-20T10:19:32.000Z</time>
      </trkpt>
      <trkpt lat="43.65873" lon="7.13955">
        <ele>20.60000038147</ele>
        <time>2011-07-20T10:19:37.000Z</time>
      </trkpt>
      <trkpt lat="43.65872" lon="7.13959">
        <ele>20.39999961853</ele>
        <time>2011-07-20T10:19:38.000Z</time>
      </trkpt>
      <trkpt lat="43.65868" lon="7.1398">
        <ele>19.60000038147</ele>
        <time>2011-07-20T10:19:43.000Z</time>
      </trkpt>
      <trkpt lat="43.65867" lon="7.13984">
        <ele>19.39999961853</ele>
        <time>2011-07-20T10:19:44.000Z</time>
      </trkpt>
      <trkpt lat="43.65862" lon="7.14006">
        <ele>18.60000038147</ele>
        <time>2011-07-20T10:19:49.000Z</time>
      </trkpt>
      <trkpt lat="43.65861" lon="7.14014">
        <ele>18.39999961853</ele>
        <time>2011-07-20T10:19:51.000Z</time>
      </trkpt>
      <trkpt lat="43.65858" lon="7.14031">
        <ele>18</ele>
        <time>2011-07-20T10:19:55.000Z</time>
      </trkpt>
      <trkpt lat="43.65859" lon="7.14035">
        <ele>17.799999237061</ele>
        <time>2011-07-20T10:19:56.000Z</time>
      </trkpt>
      <trkpt lat="43.65859" lon="7.14057">
        <ele>17</ele>
        <time>2011-07-20T10:20:01.000Z</time>
      </trkpt>
      <trkpt lat="43.65859" lon="7.14062">
        <ele>16.799999237061</ele>
        <time>2011-07-20T10:20:02.000Z</time>
      </trkpt>
      <trkpt lat="43.65859" lon="7.14084">
        <ele>16</ele>
        <time>2011-07-20T10:20:07.000Z</time>
      </trkpt>
      <trkpt lat="43.65854" lon="7.14109">
        <ele>15.800000190735</ele>
        <time>2011-07-20T10:20:13.000Z</time>
      </trkpt>
      <trkpt lat="43.65849" lon="7.14131">
        <ele>15.60000038147</ele>
        <time>2011-07-20T10:20:18.000Z</time>
      </trkpt>
      <trkpt lat="43.65848" lon="7.14135">
        <ele>15.39999961853</ele>
        <time>2011-07-20T10:20:19.000Z</time>
      </trkpt>
      <trkpt lat="43.65844" lon="7.14151">
        <ele>15.199999809265</ele>
        <time>2011-07-20T10:20:23.000Z</time>
      </trkpt>
      <trkpt lat="43.65841" lon="7.14159">
        <ele>15</ele>
        <time>2011-07-20T10:20:25.000Z</time>
      </trkpt>
      <trkpt lat="43.65837" lon="7.14175">
        <ele>15</ele>
        <time>2011-07-20T10:20:29.000Z</time>
      </trkpt>
      <trkpt lat="43.65835" lon="7.14184">
        <ele>15</ele>
        <time>2011-07-20T10:20:31.000Z</time>
      </trkpt>
      <trkpt lat="43.6583" lon="7.14204">
        <ele>15.60000038147</ele>
        <time>2011-07-20T10:20:36.000Z</time>
      </trkpt>
      <trkpt lat="43.65829" lon="7.14209">
        <ele>15.60000038147</ele>
        <time>2011-07-20T10:20:37.000Z</time>
      </trkpt>
      <trkpt lat="43.65826" lon="7.14225">
        <ele>16.200000762939</ele>
        <time>2011-07-20T10:20:41.000Z</time>
      </trkpt>
      <trkpt lat="43.65825" lon="7.14233">
        <ele>16.200000762939</ele>
        <time>2011-07-20T10:20:43.000Z</time>
      </trkpt>
      <trkpt lat="43.65821" lon="7.14245">
        <ele>17</ele>
        <time>2011-07-20T10:20:46.000Z</time>
      </trkpt>
      <trkpt lat="43.65818" lon="7.14258">
        <ele>17</ele>
        <time>2011-07-20T10:20:49.000Z</time>
      </trkpt>
      <trkpt lat="43.65817" lon="7.14263">
        <ele>16.799999237061</ele>
        <time>2011-07-20T10:20:50.000Z</time>
      </trkpt>
      <trkpt lat="43.65814" lon="7.14284">
        <ele>16.39999961853</ele>
        <time>2011-07-20T10:20:55.000Z</time>
      </trkpt>
      <trkpt lat="43.65811" lon="7.14302">
        <ele>16</ele>
        <time>2011-07-20T10:20:59.000Z</time>
      </trkpt>
      <trkpt lat="43.6581" lon="7.1431">
        <ele>15.800000190735</ele>
        <time>2011-07-20T10:21:01.000Z</time>
      </trkpt>
      <trkpt lat="43.65807" lon="7.14323">
        <ele>15.39999961853</ele>
        <time>2011-07-20T10:21:04.000Z</time>
      </trkpt>
      <trkpt lat="43.65803" lon="7.14336">
        <ele>15</ele>
        <time>2011-07-20T10:21:07.000Z</time>
      </trkpt>
      <trkpt lat="43.65801" lon="7.14344">
        <ele>15.199999809265</ele>
        <time>2011-07-20T10:21:09.000Z</time>
      </trkpt>
      <trkpt lat="43.65796" lon="7.1436">
        <ele>15.39999961853</ele>
        <time>2011-07-20T10:21:13.000Z</time>
      </trkpt>
      <trkpt lat="43.65795" lon="7.14365">
        <ele>15.60000038147</ele>
        <time>2011-07-20T10:21:14.000Z</time>
      </trkpt>
      <trkpt lat="43.65788" lon="7.14383">
        <ele>15.800000190735</ele>
        <time>2011-07-20T10:21:19.000Z</time>
      </trkpt>
      <trkpt lat="43.65789" lon="7.14389">
        <ele>15.60000038147</ele>
        <time>2011-07-20T10:21:21.000Z</time>
      </trkpt>
      <trkpt lat="43.65793" lon="7.14396">
        <ele>15.39999961853</ele>
        <time>2011-07-20T10:21:23.000Z</time>
      </trkpt>
      <trkpt lat="43.65801" lon="7.14402">
        <ele>15</ele>
        <time>2011-07-20T10:21:26.000Z</time>
      </trkpt>
      <trkpt lat="43.65806" lon="7.14406">
        <ele>14.800000190735</ele>
        <time>2011-07-20T10:21:28.000Z</time>
      </trkpt>
      <trkpt lat="43.6581" lon="7.14421">
        <ele>14.800000190735</ele>
        <time>2011-07-20T10:21:32.000Z</time>
      </trkpt>
      <trkpt lat="43.65815" lon="7.14446">
        <ele>14.39999961853</ele>
        <time>2011-07-20T10:21:37.000Z</time>
      </trkpt>
      <trkpt lat="43.65822" lon="7.14472">
        <ele>14.199999809265</ele>
        <time>2011-07-20T10:21:43.000Z</time>
      </trkpt>
      <trkpt lat="43.65831" lon="7.14494">
        <ele>14</ele>
        <time>2011-07-20T10:21:48.000Z</time>
      </trkpt>
      <trkpt lat="43.6584" lon="7.14517">
        <ele>13.39999961853</ele>
        <time>2011-07-20T10:21:53.000Z</time>
      </trkpt>
      <trkpt lat="43.6585" lon="7.14539">
        <ele>12.60000038147</ele>
        <time>2011-07-20T10:21:58.000Z</time>
      </trkpt>
      <trkpt lat="43.65852" lon="7.14543">
        <ele>12.39999961853</ele>
        <time>2011-07-20T10:21:59.000Z</time>
      </trkpt>
      <trkpt lat="43.6586" lon="7.14564">
        <ele>11.800000190735</ele>
        <time>2011-07-20T10:22:04.000Z</time>
      </trkpt>
      <trkpt lat="43.65861" lon="7.14568">
        <ele>11.60000038147</ele>
        <time>2011-07-20T10:22:05.000Z</time>
      </trkpt>
      <trkpt lat="43.65867" lon="7.14592">
        <ele>11</ele>
        <time>2011-07-20T10:22:11.000Z</time>
      </trkpt>
      <trkpt lat="43.65866" lon="7.14612">
        <ele>10.800000190735</ele>
        <time>2011-07-20T10:22:16.000Z</time>
      </trkpt>
      <trkpt lat="43.65868" lon="7.1462">
        <ele>10.800000190735</ele>
        <time>2011-07-20T10:22:18.000Z</time>
      </trkpt>
      <trkpt lat="43.6587" lon="7.14634">
        <ele>10.60000038147</ele>
        <time>2011-07-20T10:22:21.000Z</time>
      </trkpt>
      <trkpt lat="43.65869" lon="7.14646">
        <ele>10.60000038147</ele>
        <time>2011-07-20T10:22:24.000Z</time>
      </trkpt>
      <trkpt lat="43.65867" lon="7.14655">
        <ele>10.39999961853</ele>
        <time>2011-07-20T10:22:26.000Z</time>
      </trkpt>
      <trkpt lat="43.65862" lon="7.14673">
        <ele>10.199999809265</ele>
        <time>2011-07-20T10:22:30.000Z</time>
      </trkpt>
      <trkpt lat="43.6586" lon="7.14682">
        <ele>10</ele>
        <time>2011-07-20T10:22:32.000Z</time>
      </trkpt>
      <trkpt lat="43.65855" lon="7.147">
        <ele>9.8000001907349</ele>
        <time>2011-07-20T10:22:36.000Z</time>
      </trkpt>
      <trkpt lat="43.65854" lon="7.14708">
        <ele>9.8000001907349</ele>
        <time>2011-07-20T10:22:38.000Z</time>
      </trkpt>
      <trkpt lat="43.6585" lon="7.14725">
        <ele>9.6000003814697</ele>
        <time>2011-07-20T10:22:42.000Z</time>
      </trkpt>
      <trkpt lat="43.65848" lon="7.14734">
        <ele>9.3999996185303</ele>
        <time>2011-07-20T10:22:44.000Z</time>
      </trkpt>
      <trkpt lat="43.65845" lon="7.14751">
        <ele>9.1999998092651</ele>
        <time>2011-07-20T10:22:48.000Z</time>
      </trkpt>
      <trkpt lat="43.65845" lon="7.1476">
        <ele>9.1999998092651</ele>
        <time>2011-07-20T10:22:50.000Z</time>
      </trkpt>
      <trkpt lat="43.65845" lon="7.14778">
        <ele>9.3999996185303</ele>
        <time>2011-07-20T10:22:54.000Z</time>
      </trkpt>
      <trkpt lat="43.65844" lon="7.14787">
        <ele>9.3999996185303</ele>
        <time>2011-07-20T10:22:56.000Z</time>
      </trkpt>
      <trkpt lat="43.65846" lon="7.14804">
        <ele>9.6000003814697</ele>
        <time>2011-07-20T10:23:00.000Z</time>
      </trkpt>
      <trkpt lat="43.65845" lon="7.14811">
        <ele>9.8000001907349</ele>
        <time>2011-07-20T10:23:02.000Z</time>
      </trkpt>
      <trkpt lat="43.65844" lon="7.14828">
        <ele>9.8000001907349</ele>
        <time>2011-07-20T10:23:07.000Z</time>
      </trkpt>
      <trkpt lat="43.65857" lon="7.14834">
        <ele>10</ele>
        <time>2011-07-20T10:23:12.000Z</time>
      </trkpt>
      <trkpt lat="43.65858" lon="7.14835">
        <ele>10</ele>
        <time>2011-07-20T10:23:13.000Z</time>
      </trkpt>
      <trkpt lat="43.65863" lon="7.1484">
        <ele>10</ele>
        <time>2011-07-20T10:23:15.000Z</time>
      </trkpt>
      <trkpt lat="43.65869" lon="7.14844">
        <ele>10</ele>
        <time>2011-07-20T10:23:17.000Z</time>
      </trkpt>
      <trkpt lat="43.65882" lon="7.14852">
        <ele>10.199999809265</ele>
        <time>2011-07-20T10:23:21.000Z</time>
      </trkpt>
      <trkpt lat="43.6589" lon="7.14854">
        <ele>10.199999809265</ele>
        <time>2011-07-20T10:23:23.000Z</time>
      </trkpt>
      <trkpt lat="43.65902" lon="7.14857">
        <ele>10.199999809265</ele>
        <time>2011-07-20T10:23:27.000Z</time>
      </trkpt>
      <trkpt lat="43.65908" lon="7.14859">
        <ele>10.199999809265</ele>
        <time>2011-07-20T10:23:29.000Z</time>
      </trkpt>
      <trkpt lat="43.6592" lon="7.14864">
        <ele>10.39999961853</ele>
        <time>2011-07-20T10:23:33.000Z</time>
      </trkpt>
      <trkpt lat="43.65922" lon="7.14864">
        <ele>10.60000038147</ele>
        <time>2011-07-20T10:23:34.000Z</time>
      </trkpt>
      <trkpt lat="43.65937" lon="7.14868">
        <ele>11.39999961853</ele>
        <time>2011-07-20T10:23:39.000Z</time>
      </trkpt>
      <trkpt lat="43.6594" lon="7.14868">
        <ele>11.39999961853</ele>
        <time>2011-07-20T10:23:40.000Z</time>
      </trkpt>
      <trkpt lat="43.65955" lon="7.14869">
        <ele>12.199999809265</ele>
        <time>2011-07-20T10:23:45.000Z</time>
      </trkpt>
      <trkpt lat="43.65962" lon="7.14869">
        <ele>12.60000038147</ele>
        <time>2011-07-20T10:23:47.000Z</time>
      </trkpt>
      <trkpt lat="43.65975" lon="7.14869">
        <ele>13.199999809265</ele>
        <time>2011-07-20T10:23:52.000Z</time>
      </trkpt>
      <trkpt lat="43.65978" lon="7.14869">
        <ele>13.39999961853</ele>
        <time>2011-07-20T10:23:53.000Z</time>
      </trkpt>
      <trkpt lat="43.65991" lon="7.14867">
        <ele>14</ele>
        <time>2011-07-20T10:23:57.000Z</time>
      </trkpt>
      <trkpt lat="43.65994" lon="7.14867">
        <ele>14.199999809265</ele>
        <time>2011-07-20T10:23:58.000Z</time>
      </trkpt>
      <trkpt lat="43.66011" lon="7.14864">
        <ele>15</ele>
        <time>2011-07-20T10:24:03.000Z</time>
      </trkpt>
      <trkpt lat="43.66015" lon="7.14865">
        <ele>15.199999809265</ele>
        <time>2011-07-20T10:24:04.000Z</time>
      </trkpt>
      <trkpt lat="43.66026" lon="7.14874">
        <ele>15.39999961853</ele>
        <time>2011-07-20T10:24:08.000Z</time>
      </trkpt>
      <trkpt lat="43.66028" lon="7.14883">
        <ele>15.199999809265</ele>
        <time>2011-07-20T10:24:10.000Z</time>
      </trkpt>
      <trkpt lat="43.66027" lon="7.14893">
        <ele>15</ele>
        <time>2011-07-20T10:24:12.000Z</time>
      </trkpt>
      <trkpt lat="43.66026" lon="7.14911">
        <ele>14.60000038147</ele>
        <time>2011-07-20T10:24:16.000Z</time>
      </trkpt>
      <trkpt lat="43.66026" lon="7.14916">
        <ele>14.60000038147</ele>
        <time>2011-07-20T10:24:17.000Z</time>
      </trkpt>
      <trkpt lat="43.66024" lon="7.14939">
        <ele>14.60000038147</ele>
        <time>2011-07-20T10:24:22.000Z</time>
      </trkpt>
      <trkpt lat="43.66016" lon="7.1496">
        <ele>14.60000038147</ele>
        <time>2011-07-20T10:24:27.000Z</time>
      </trkpt>
      <trkpt lat="43.66015" lon="7.14965">
        <ele>14.60000038147</ele>
        <time>2011-07-20T10:24:28.000Z</time>
      </trkpt>
      <trkpt lat="43.66009" lon="7.14986">
        <ele>14.800000190735</ele>
        <time>2011-07-20T10:24:33.000Z</time>
      </trkpt>
      <trkpt lat="43.66007" lon="7.1499">
        <ele>14.800000190735</ele>
        <time>2011-07-20T10:24:34.000Z</time>
      </trkpt>
      <trkpt lat="43.66005" lon="7.15009">
        <ele>14.60000038147</ele>
        <time>2011-07-20T10:24:38.000Z</time>
      </trkpt>
      <trkpt lat="43.66006" lon="7.15017">
        <ele>14.199999809265</ele>
        <time>2011-07-20T10:24:40.000Z</time>
      </trkpt>
      <trkpt lat="43.66011" lon="7.15028">
        <ele>13.800000190735</ele>
        <time>2011-07-20T10:24:43.000Z</time>
      </trkpt>
      <trkpt lat="43.66019" lon="7.15037">
        <ele>13.60000038147</ele>
        <time>2011-07-20T10:24:46.000Z</time>
      </trkpt>
      <trkpt lat="43.66023" lon="7.1504">
        <ele>13.39999961853</ele>
        <time>2011-07-20T10:24:47.000Z</time>
      </trkpt>
      <trkpt lat="43.66033" lon="7.15054">
        <ele>13</ele>
        <time>2011-07-20T10:24:52.000Z</time>
      </trkpt>
      <trkpt lat="43.66042" lon="7.15062">
        <ele>12.60000038147</ele>
        <time>2011-07-20T10:24:56.000Z</time>
      </trkpt>
      <trkpt lat="43.66052" lon="7.15064">
        <ele>12.60000038147</ele>
        <time>2011-07-20T10:24:59.000Z</time>
      </trkpt>
      <trkpt lat="43.66059" lon="7.15063">
        <ele>12.60000038147</ele>
        <time>2011-07-20T10:25:02.000Z</time>
      </trkpt>
      <trkpt lat="43.66069" lon="7.15062">
        <ele>12.60000038147</ele>
        <time>2011-07-20T10:25:07.000Z</time>
      </trkpt>
      <trkpt lat="43.66072" lon="7.15063">
        <ele>12.60000038147</ele>
        <time>2011-07-20T10:25:08.000Z</time>
      </trkpt>
      <trkpt lat="43.66087" lon="7.15065">
        <ele>12.60000038147</ele>
        <time>2011-07-20T10:25:12.000Z</time>
      </trkpt>
      <trkpt lat="43.6609" lon="7.15065">
        <ele>12.60000038147</ele>
        <time>2011-07-20T10:25:13.000Z</time>
      </trkpt>
      <trkpt lat="43.66104" lon="7.15064">
        <ele>12.800000190735</ele>
        <time>2011-07-20T10:25:18.000Z</time>
      </trkpt>
      <trkpt lat="43.66109" lon="7.15062">
        <ele>12.800000190735</ele>
        <time>2011-07-20T10:25:20.000Z</time>
      </trkpt>
      <trkpt lat="43.66119" lon="7.15061">
        <ele>13</ele>
        <time>2011-07-20T10:25:23.000Z</time>
      </trkpt>
      <trkpt lat="43.6613" lon="7.1506">
        <ele>13</ele>
        <time>2011-07-20T10:25:26.000Z</time>
      </trkpt>
      <trkpt lat="43.66134" lon="7.1506">
        <ele>13</ele>
        <time>2011-07-20T10:25:27.000Z</time>
      </trkpt>
      <trkpt lat="43.66149" lon="7.15062">
        <ele>13</ele>
        <time>2011-07-20T10:25:31.000Z</time>
      </trkpt>
      <trkpt lat="43.66151" lon="7.15063">
        <ele>13</ele>
        <time>2011-07-20T10:25:32.000Z</time>
      </trkpt>
      <trkpt lat="43.66169" lon="7.15064">
        <ele>13.199999809265</ele>
        <time>2011-07-20T10:25:38.000Z</time>
      </trkpt>
      <trkpt lat="43.66171" lon="7.15064">
        <ele>13.199999809265</ele>
        <time>2011-07-20T10:25:39.000Z</time>
      </trkpt>
      <trkpt lat="43.66187" lon="7.15062">
        <ele>13.39999961853</ele>
        <time>2011-07-20T10:25:44.000Z</time>
      </trkpt>
      <trkpt lat="43.66194" lon="7.15062">
        <ele>13.60000038147</ele>
        <time>2011-07-20T10:25:46.000Z</time>
      </trkpt>
      <trkpt lat="43.66205" lon="7.1506">
        <ele>13.60000038147</ele>
        <time>2011-07-20T10:25:49.000Z</time>
      </trkpt>
      <trkpt lat="43.66218" lon="7.15057">
        <ele>14</ele>
        <time>2011-07-20T10:25:54.000Z</time>
      </trkpt>
      <trkpt lat="43.66224" lon="7.15052">
        <ele>14.199999809265</ele>
        <time>2011-07-20T10:25:57.000Z</time>
      </trkpt>
      <trkpt lat="43.66228" lon="7.15053">
        <ele>14.39999961853</ele>
        <time>2011-07-20T10:25:58.000Z</time>
      </trkpt>
      <trkpt lat="43.66238" lon="7.15068">
        <ele>13.800000190735</ele>
        <time>2011-07-20T10:26:02.000Z</time>
      </trkpt>
      <trkpt lat="43.6624" lon="7.15092">
        <ele>12.800000190735</ele>
        <time>2011-07-20T10:26:06.000Z</time>
      </trkpt>
      <trkpt lat="43.66241" lon="7.15098">
        <ele>12.800000190735</ele>
        <time>2011-07-20T10:26:07.000Z</time>
      </trkpt>
      <trkpt lat="43.66243" lon="7.15104">
        <ele>12.800000190735</ele>
        <time>2011-07-20T10:26:08.000Z</time>
      </trkpt>
      <trkpt lat="43.66245" lon="7.15115">
        <ele>12.800000190735</ele>
        <time>2011-07-20T10:26:10.000Z</time>
      </trkpt>
      <trkpt lat="43.66244" lon="7.15125">
        <ele>12.800000190735</ele>
        <time>2011-07-20T10:26:12.000Z</time>
      </trkpt>
      <trkpt lat="43.66242" lon="7.15143">
        <ele>12.800000190735</ele>
        <time>2011-07-20T10:26:16.000Z</time>
      </trkpt>
      <trkpt lat="43.6624" lon="7.15147">
        <ele>12.800000190735</ele>
        <time>2011-07-20T10:26:17.000Z</time>
      </trkpt>
      <trkpt lat="43.66238" lon="7.15152">
        <ele>12.60000038147</ele>
        <time>2011-07-20T10:26:18.000Z</time>
      </trkpt>
      <trkpt lat="43.66236" lon="7.15164">
        <ele>12.60000038147</ele>
        <time>2011-07-20T10:26:21.000Z</time>
      </trkpt>
      <trkpt lat="43.66237" lon="7.15169">
        <ele>12.60000038147</ele>
        <time>2011-07-20T10:26:22.000Z</time>
      </trkpt>
      <trkpt lat="43.66241" lon="7.15177">
        <ele>12.39999961853</ele>
        <time>2011-07-20T10:26:24.000Z</time>
      </trkpt>
      <trkpt lat="43.66244" lon="7.1519">
        <ele>12.199999809265</ele>
        <time>2011-07-20T10:26:27.000Z</time>
      </trkpt>
      <trkpt lat="43.66248" lon="7.15203">
        <ele>12</ele>
        <time>2011-07-20T10:26:30.000Z</time>
      </trkpt>
      <trkpt lat="43.6625" lon="7.15212">
        <ele>11.800000190735</ele>
        <time>2011-07-20T10:26:32.000Z</time>
      </trkpt>
      <trkpt lat="43.66254" lon="7.1523">
        <ele>11.39999961853</ele>
        <time>2011-07-20T10:26:36.000Z</time>
      </trkpt>
      <trkpt lat="43.66255" lon="7.15234">
        <ele>11.199999809265</ele>
        <time>2011-07-20T10:26:37.000Z</time>
      </trkpt>
      <trkpt lat="43.66259" lon="7.15256">
        <ele>10.800000190735</ele>
        <time>2011-07-20T10:26:42.000Z</time>
      </trkpt>
      <trkpt lat="43.66261" lon="7.15265">
        <ele>10.60000038147</ele>
        <time>2011-07-20T10:26:44.000Z</time>
      </trkpt>
      <trkpt lat="43.66261" lon="7.15282">
        <ele>10.39999961853</ele>
        <time>2011-07-20T10:26:48.000Z</time>
      </trkpt>
      <trkpt lat="43.66259" lon="7.15307">
        <ele>10.199999809265</ele>
        <time>2011-07-20T10:26:54.000Z</time>
      </trkpt>
      <trkpt lat="43.66258" lon="7.15325">
        <ele>10</ele>
        <time>2011-07-20T10:26:58.000Z</time>
      </trkpt>
      <trkpt lat="43.66256" lon="7.15328">
        <ele>10</ele>
        <time>2011-07-20T10:26:59.000Z</time>
      </trkpt>
      <trkpt lat="43.66253" lon="7.15329">
        <ele>10</ele>
        <time>2011-07-20T10:27:00.000Z</time>
      </trkpt>
      <trkpt lat="43.66242" lon="7.15332">
        <ele>10</ele>
        <time>2011-07-20T10:27:03.000Z</time>
      </trkpt>
      <trkpt lat="43.66232" lon="7.15333">
        <ele>10.199999809265</ele>
        <time>2011-07-20T10:27:06.000Z</time>
      </trkpt>
      <trkpt lat="43.66222" lon="7.15335">
        <ele>10.199999809265</ele>
        <time>2011-07-20T10:27:09.000Z</time>
      </trkpt>
      <trkpt lat="43.66212" lon="7.15336">
        <ele>10.39999961853</ele>
        <time>2011-07-20T10:27:12.000Z</time>
      </trkpt>
      <trkpt lat="43.66203" lon="7.15339">
        <ele>10.60000038147</ele>
        <time>2011-07-20T10:27:15.000Z</time>
      </trkpt>
      <trkpt lat="43.66193" lon="7.15341">
        <ele>10.60000038147</ele>
        <time>2011-07-20T10:27:18.000Z</time>
      </trkpt>
      <trkpt lat="43.66187" lon="7.15343">
        <ele>10.800000190735</ele>
        <time>2011-07-20T10:27:20.000Z</time>
      </trkpt>
      <trkpt lat="43.66174" lon="7.15345">
        <ele>11</ele>
        <time>2011-07-20T10:27:24.000Z</time>
      </trkpt>
      <trkpt lat="43.66171" lon="7.15346">
        <ele>11</ele>
        <time>2011-07-20T10:27:25.000Z</time>
      </trkpt>
      <trkpt lat="43.66154" lon="7.1535">
        <ele>10.800000190735</ele>
        <time>2011-07-20T10:27:30.000Z</time>
      </trkpt>
      <trkpt lat="43.66151" lon="7.1535">
        <ele>10.800000190735</ele>
        <time>2011-07-20T10:27:31.000Z</time>
      </trkpt>
      <trkpt lat="43.66134" lon="7.15351">
        <ele>10.60000038147</ele>
        <time>2011-07-20T10:27:36.000Z</time>
      </trkpt>
      <trkpt lat="43.6613" lon="7.15352">
        <ele>10.60000038147</ele>
        <time>2011-07-20T10:27:37.000Z</time>
      </trkpt>
      <trkpt lat="43.66114" lon="7.15357">
        <ele>10.39999961853</ele>
        <time>2011-07-20T10:27:42.000Z</time>
      </trkpt>
      <trkpt lat="43.6611" lon="7.15357">
        <ele>10.39999961853</ele>
        <time>2011-07-20T10:27:43.000Z</time>
      </trkpt>
      <trkpt lat="43.66096" lon="7.15358">
        <ele>10.199999809265</ele>
        <time>2011-07-20T10:27:47.000Z</time>
      </trkpt>
      <trkpt lat="43.66093" lon="7.15358">
        <ele>10.199999809265</ele>
        <time>2011-07-20T10:27:48.000Z</time>
      </trkpt>
      <trkpt lat="43.66084" lon="7.15362">
        <ele>10.199999809265</ele>
        <time>2011-07-20T10:27:53.000Z</time>
      </trkpt>
      <trkpt lat="43.66085" lon="7.15362">
        <ele>10.199999809265</ele>
        <time>2011-07-20T10:27:54.000Z</time>
      </trkpt>
      <trkpt lat="43.66056" lon="7.15384">
        <ele>11.39999961853</ele>
        <time>2011-07-20T10:28:06.000Z</time>
      </trkpt>
      <trkpt lat="43.66036" lon="7.15378">
        <ele>11.39999961853</ele>
        <time>2011-07-20T10:28:09.000Z</time>
      </trkpt>
      <trkpt lat="43.66029" lon="7.15379">
        <ele>11.39999961853</ele>
        <time>2011-07-20T10:28:11.000Z</time>
      </trkpt>
      <trkpt lat="43.66021" lon="7.15379">
        <ele>11.39999961853</ele>
        <time>2011-07-20T10:28:14.000Z</time>
      </trkpt>
      <trkpt lat="43.66017" lon="7.1538">
        <ele>11.39999961853</ele>
        <time>2011-07-20T10:28:15.000Z</time>
      </trkpt>
      <trkpt lat="43.66013" lon="7.1538">
        <ele>11.60000038147</ele>
        <time>2011-07-20T10:28:16.000Z</time>
      </trkpt>
      <trkpt lat="43.66006" lon="7.15383">
        <ele>11.60000038147</ele>
        <time>2011-07-20T10:28:18.000Z</time>
      </trkpt>
      <trkpt lat="43.65998" lon="7.15387">
        <ele>11.800000190735</ele>
        <time>2011-07-20T10:28:21.000Z</time>
      </trkpt>
      <trkpt lat="43.65995" lon="7.15388">
        <ele>11.800000190735</ele>
        <time>2011-07-20T10:28:22.000Z</time>
      </trkpt>
      <trkpt lat="43.65976" lon="7.15388">
        <ele>11.800000190735</ele>
        <time>2011-07-20T10:28:27.000Z</time>
      </trkpt>
      <trkpt lat="43.65972" lon="7.15386">
        <ele>11.800000190735</ele>
        <time>2011-07-20T10:28:28.000Z</time>
      </trkpt>
      <trkpt lat="43.6596" lon="7.15387">
        <ele>11.800000190735</ele>
        <time>2011-07-20T10:28:32.000Z</time>
      </trkpt>
      <trkpt lat="43.65957" lon="7.15387">
        <ele>11.800000190735</ele>
        <time>2011-07-20T10:28:33.000Z</time>
      </trkpt>
      <trkpt lat="43.65943" lon="7.15387">
        <ele>11.800000190735</ele>
        <time>2011-07-20T10:28:37.000Z</time>
      </trkpt>
      <trkpt lat="43.65939" lon="7.15388">
        <ele>11.800000190735</ele>
        <time>2011-07-20T10:28:38.000Z</time>
      </trkpt>
      <trkpt lat="43.65927" lon="7.15389">
        <ele>12</ele>
        <time>2011-07-20T10:28:42.000Z</time>
      </trkpt>
      <trkpt lat="43.65921" lon="7.15389">
        <ele>11.800000190735</ele>
        <time>2011-07-20T10:28:44.000Z</time>
      </trkpt>
      <trkpt lat="43.65907" lon="7.15386">
        <ele>11.39999961853</ele>
        <time>2011-07-20T10:28:48.000Z</time>
      </trkpt>
      <trkpt lat="43.65901" lon="7.15385">
        <ele>11</ele>
        <time>2011-07-20T10:28:50.000Z</time>
      </trkpt>
      <trkpt lat="43.65894" lon="7.15384">
        <ele>10.800000190735</ele>
        <time>2011-07-20T10:28:52.000Z</time>
      </trkpt>
      <trkpt lat="43.65883" lon="7.15382">
        <ele>10.199999809265</ele>
        <time>2011-07-20T10:28:55.000Z</time>
      </trkpt>
      <trkpt lat="43.65877" lon="7.15383">
        <ele>10</ele>
        <time>2011-07-20T10:28:57.000Z</time>
      </trkpt>
      <trkpt lat="43.65865" lon="7.15386">
        <ele>9.6000003814697</ele>
        <time>2011-07-20T10:29:02.000Z</time>
      </trkpt>
      <trkpt lat="43.65852" lon="7.1538">
        <ele>8.8000001907349</ele>
        <time>2011-07-20T10:29:06.000Z</time>
      </trkpt>
      <trkpt lat="43.65848" lon="7.15379">
        <ele>8.6000003814697</ele>
        <time>2011-07-20T10:29:07.000Z</time>
      </trkpt>
      <trkpt lat="43.6583" lon="7.15377">
        <ele>8</ele>
        <time>2011-07-20T10:29:12.000Z</time>
      </trkpt>
      <trkpt lat="43.65812" lon="7.1538">
        <ele>8</ele>
        <time>2011-07-20T10:29:18.000Z</time>
      </trkpt>
      <trkpt lat="43.65791" lon="7.15376">
        <ele>8</ele>
        <time>2011-07-20T10:29:24.000Z</time>
      </trkpt>
      <trkpt lat="43.65775" lon="7.15375">
        <ele>8</ele>
        <time>2011-07-20T10:29:29.000Z</time>
      </trkpt>
      <trkpt lat="43.65771" lon="7.15374">
        <ele>7.8000001907349</ele>
        <time>2011-07-20T10:29:30.000Z</time>
      </trkpt>
      <trkpt lat="43.65758" lon="7.15372">
        <ele>7.8000001907349</ele>
        <time>2011-07-20T10:29:34.000Z</time>
      </trkpt>
      <trkpt lat="43.65752" lon="7.15372">
        <ele>7.8000001907349</ele>
        <time>2011-07-20T10:29:36.000Z</time>
      </trkpt>
      <trkpt lat="43.65742" lon="7.15372">
        <ele>7.8000001907349</ele>
        <time>2011-07-20T10:29:39.000Z</time>
      </trkpt>
      <trkpt lat="43.65733" lon="7.15372">
        <ele>7.8000001907349</ele>
        <time>2011-07-20T10:29:42.000Z</time>
      </trkpt>
      <trkpt lat="43.6573" lon="7.15372">
        <ele>7.8000001907349</ele>
        <time>2011-07-20T10:29:43.000Z</time>
      </trkpt>
      <trkpt lat="43.65715" lon="7.15371">
        <ele>8</ele>
        <time>2011-07-20T10:29:47.000Z</time>
      </trkpt>
      <trkpt lat="43.65712" lon="7.15371">
        <ele>8</ele>
        <time>2011-07-20T10:29:48.000Z</time>
      </trkpt>
      <trkpt lat="43.65695" lon="7.1537">
        <ele>8</ele>
        <time>2011-07-20T10:29:53.000Z</time>
      </trkpt>
      <trkpt lat="43.65692" lon="7.1537">
        <ele>8.1999998092651</ele>
        <time>2011-07-20T10:29:54.000Z</time>
      </trkpt>
      <trkpt lat="43.65676" lon="7.15374">
        <ele>8.3999996185303</ele>
        <time>2011-07-20T10:29:59.000Z</time>
      </trkpt>
      <trkpt lat="43.65674" lon="7.15376">
        <ele>8.3999996185303</ele>
        <time>2011-07-20T10:30:00.000Z</time>
      </trkpt>
      <trkpt lat="43.65656" lon="7.15387">
        <ele>8.6000003814697</ele>
        <time>2011-07-20T10:30:06.000Z</time>
      </trkpt>
      <trkpt lat="43.65639" lon="7.15397">
        <ele>8.6000003814697</ele>
        <time>2011-07-20T10:30:12.000Z</time>
      </trkpt>
      <trkpt lat="43.65621" lon="7.15408">
        <ele>8.3999996185303</ele>
        <time>2011-07-20T10:30:18.000Z</time>
      </trkpt>
      <trkpt lat="43.65607" lon="7.1542">
        <ele>8.3999996185303</ele>
        <time>2011-07-20T10:30:23.000Z</time>
      </trkpt>
      <trkpt lat="43.65605" lon="7.15422">
        <ele>8.3999996185303</ele>
        <time>2011-07-20T10:30:24.000Z</time>
      </trkpt>
      <trkpt lat="43.65603" lon="7.15427">
        <ele>8.6000003814697</ele>
        <time>2011-07-20T10:30:27.000Z</time>
      </trkpt>
      <trkpt lat="43.65603" lon="7.15429">
        <ele>8.6000003814697</ele>
        <time>2011-07-20T10:30:28.000Z</time>
      </trkpt>
      <trkpt lat="43.65604" lon="7.15433">
        <ele>8.8000001907349</ele>
        <time>2011-07-20T10:30:32.000Z</time>
      </trkpt>
      <trkpt lat="43.65603" lon="7.15434">
        <ele>8.8000001907349</ele>
        <time>2011-07-20T10:30:35.000Z</time>
      </trkpt>
      <trkpt lat="43.65598" lon="7.15435">
        <ele>8.8000001907349</ele>
        <time>2011-07-20T10:30:37.000Z</time>
      </trkpt>
      <trkpt lat="43.65594" lon="7.15436">
        <ele>8.8000001907349</ele>
        <time>2011-07-20T10:30:38.000Z</time>
      </trkpt>
      <trkpt lat="43.6559" lon="7.15436">
        <ele>8.8000001907349</ele>
        <time>2011-07-20T10:30:40.000Z</time>
      </trkpt>
      <trkpt lat="43.65588" lon="7.15435">
        <ele>8.6000003814697</ele>
        <time>2011-07-20T10:30:41.000Z</time>
      </trkpt>
      <trkpt lat="43.65581" lon="7.15434">
        <ele>8.6000003814697</ele>
        <time>2011-07-20T10:30:44.000Z</time>
      </trkpt>
      <trkpt lat="43.65577" lon="7.15438">
        <ele>8.6000003814697</ele>
        <time>2011-07-20T10:30:46.000Z</time>
      </trkpt>
      <trkpt lat="43.65571" lon="7.15441">
        <ele>8.6000003814697</ele>
        <time>2011-07-20T10:30:48.000Z</time>
      </trkpt>
      <trkpt lat="43.6556" lon="7.15446">
        <ele>8.6000003814697</ele>
        <time>2011-07-20T10:30:52.000Z</time>
      </trkpt>
      <trkpt lat="43.65556" lon="7.15447">
        <ele>8.6000003814697</ele>
        <time>2011-07-20T10:30:53.000Z</time>
      </trkpt>
      <trkpt lat="43.65542" lon="7.15444">
        <ele>8.3999996185303</ele>
        <time>2011-07-20T10:30:57.000Z</time>
      </trkpt>
      <trkpt lat="43.65523" lon="7.15441">
        <ele>8.1999998092651</ele>
        <time>2011-07-20T10:31:02.000Z</time>
      </trkpt>
      <trkpt lat="43.65519" lon="7.1544">
        <ele>8.1999998092651</ele>
        <time>2011-07-20T10:31:03.000Z</time>
      </trkpt>
      <trkpt lat="43.65513" lon="7.15439">
        <ele>8.1999998092651</ele>
        <time>2011-07-20T10:31:06.000Z</time>
      </trkpt>
      <trkpt lat="43.65502" lon="7.15432">
        <ele>8.3999996185303</ele>
        <time>2011-07-20T10:31:10.000Z</time>
      </trkpt>
      <trkpt lat="43.65499" lon="7.1543">
        <ele>8.3999996185303</ele>
        <time>2011-07-20T10:31:11.000Z</time>
      </trkpt>
      <trkpt lat="43.65485" lon="7.15421">
        <ele>8</ele>
        <time>2011-07-20T10:31:16.000Z</time>
      </trkpt>
      <trkpt lat="43.65467" lon="7.15412">
        <ele>7.5999999046326</ele>
        <time>2011-07-20T10:31:22.000Z</time>
      </trkpt>
      <trkpt lat="43.65448" lon="7.154">
        <ele>7.1999998092651</ele>
        <time>2011-07-20T10:31:28.000Z</time>
      </trkpt>
      <trkpt lat="43.65433" lon="7.15396">
        <ele>6.8000001907349</ele>
        <time>2011-07-20T10:31:33.000Z</time>
      </trkpt>
      <trkpt lat="43.65427" lon="7.15396">
        <ele>6.5999999046326</ele>
        <time>2011-07-20T10:31:35.000Z</time>
      </trkpt>
      <trkpt lat="43.65419" lon="7.15395">
        <ele>6.1999998092651</ele>
        <time>2011-07-20T10:31:38.000Z</time>
      </trkpt>
      <trkpt lat="43.65406" lon="7.15397">
        <ele>6.1999998092651</ele>
        <time>2011-07-20T10:31:42.000Z</time>
      </trkpt>
      <trkpt lat="43.65399" lon="7.15399">
        <ele>6.4000000953674</ele>
        <time>2011-07-20T10:31:44.000Z</time>
      </trkpt>
      <trkpt lat="43.65386" lon="7.15406">
        <ele>6.1999998092651</ele>
        <time>2011-07-20T10:31:48.000Z</time>
      </trkpt>
      <trkpt lat="43.65383" lon="7.15408">
        <ele>6.1999998092651</ele>
        <time>2011-07-20T10:31:49.000Z</time>
      </trkpt>
      <trkpt lat="43.6537" lon="7.15421">
        <ele>5.8000001907349</ele>
        <time>2011-07-20T10:31:54.000Z</time>
      </trkpt>
      <trkpt lat="43.65357" lon="7.15433">
        <ele>5.8000001907349</ele>
        <time>2011-07-20T10:31:59.000Z</time>
      </trkpt>
      <trkpt lat="43.65354" lon="7.15435">
        <ele>5.8000001907349</ele>
        <time>2011-07-20T10:32:00.000Z</time>
      </trkpt>
      <trkpt lat="43.65346" lon="7.15448">
        <ele>5.5999999046326</ele>
        <time>2011-07-20T10:32:04.000Z</time>
      </trkpt>
      <trkpt lat="43.65342" lon="7.15455">
        <ele>5.4000000953674</ele>
        <time>2011-07-20T10:32:06.000Z</time>
      </trkpt>
      <trkpt lat="43.65332" lon="7.15466">
        <ele>5.1999998092651</ele>
        <time>2011-07-20T10:32:10.000Z</time>
      </trkpt>
      <trkpt lat="43.65326" lon="7.15472">
        <ele>5.1999998092651</ele>
        <time>2011-07-20T10:32:12.000Z</time>
      </trkpt>
      <trkpt lat="43.65319" lon="7.15481">
        <ele>5.1999998092651</ele>
        <time>2011-07-20T10:32:15.000Z</time>
      </trkpt>
      <trkpt lat="43.65312" lon="7.15489">
        <ele>5</ele>
        <time>2011-07-20T10:32:18.000Z</time>
      </trkpt>
      <trkpt lat="43.65304" lon="7.15497">
        <ele>4.8000001907349</ele>
        <time>2011-07-20T10:32:21.000Z</time>
      </trkpt>
      <trkpt lat="43.653" lon="7.15508">
        <ele>4.5999999046326</ele>
        <time>2011-07-20T10:32:25.000Z</time>
      </trkpt>
      <trkpt lat="43.65296" lon="7.15516">
        <ele>4.4000000953674</ele>
        <time>2011-07-20T10:32:29.000Z</time>
      </trkpt>
      <trkpt lat="43.65289" lon="7.15515">
        <ele>4.4000000953674</ele>
        <time>2011-07-20T10:32:31.000Z</time>
      </trkpt>
      <trkpt lat="43.65283" lon="7.15513">
        <ele>4.5999999046326</ele>
        <time>2011-07-20T10:32:33.000Z</time>
      </trkpt>
      <trkpt lat="43.6527" lon="7.15513">
        <ele>4.8000001907349</ele>
        <time>2011-07-20T10:32:37.000Z</time>
      </trkpt>
      <trkpt lat="43.65265" lon="7.15507">
        <ele>5.1999998092651</ele>
        <time>2011-07-20T10:32:39.000Z</time>
      </trkpt>
      <trkpt lat="43.65257" lon="7.15499">
        <ele>5.8000001907349</ele>
        <time>2011-07-20T10:32:42.000Z</time>
      </trkpt>
      <trkpt lat="43.65254" lon="7.15496">
        <ele>6.1999998092651</ele>
        <time>2011-07-20T10:32:43.000Z</time>
      </trkpt>
      <trkpt lat="43.65244" lon="7.1548">
        <ele>7.8000001907349</ele>
        <time>2011-07-20T10:32:48.000Z</time>
      </trkpt>
      <trkpt lat="43.65242" lon="7.15477">
        <ele>8.1999998092651</ele>
        <time>2011-07-20T10:32:49.000Z</time>
      </trkpt>
      <trkpt lat="43.65233" lon="7.15465">
        <ele>9.1999998092651</ele>
        <time>2011-07-20T10:32:53.000Z</time>
      </trkpt>
      <trkpt lat="43.65229" lon="7.15459">
        <ele>9.3999996185303</ele>
        <time>2011-07-20T10:32:55.000Z</time>
      </trkpt>
      <trkpt lat="43.6522" lon="7.15447">
        <ele>10</ele>
        <time>2011-07-20T10:32:59.000Z</time>
      </trkpt>
      <trkpt lat="43.65215" lon="7.15441">
        <ele>10</ele>
        <time>2011-07-20T10:33:01.000Z</time>
      </trkpt>
      <trkpt lat="43.65206" lon="7.1543">
        <ele>9.8000001907349</ele>
        <time>2011-07-20T10:33:05.000Z</time>
      </trkpt>
      <trkpt lat="43.65201" lon="7.15424">
        <ele>9.6000003814697</ele>
        <time>2011-07-20T10:33:07.000Z</time>
      </trkpt>
      <trkpt lat="43.65192" lon="7.15412">
        <ele>9.1999998092651</ele>
        <time>2011-07-20T10:33:11.000Z</time>
      </trkpt>
      <trkpt lat="43.65187" lon="7.15406">
        <ele>9</ele>
        <time>2011-07-20T10:33:13.000Z</time>
      </trkpt>
      <trkpt lat="43.6518" lon="7.15397">
        <ele>9</ele>
        <time>2011-07-20T10:33:16.000Z</time>
      </trkpt>
      <trkpt lat="43.65173" lon="7.15388">
        <ele>9</ele>
        <time>2011-07-20T10:33:19.000Z</time>
      </trkpt>
      <trkpt lat="43.65169" lon="7.15383">
        <ele>9</ele>
        <time>2011-07-20T10:33:21.000Z</time>
      </trkpt>
      <trkpt lat="43.65159" lon="7.1537">
        <ele>9.6000003814697</ele>
        <time>2011-07-20T10:33:25.000Z</time>
      </trkpt>
      <trkpt lat="43.65157" lon="7.15367">
        <ele>9.8000001907349</ele>
        <time>2011-07-20T10:33:26.000Z</time>
      </trkpt>
      <trkpt lat="43.65144" lon="7.15353">
        <ele>10</ele>
        <time>2011-07-20T10:33:31.000Z</time>
      </trkpt>
      <trkpt lat="43.65142" lon="7.1535">
        <ele>10</ele>
        <time>2011-07-20T10:33:32.000Z</time>
      </trkpt>
      <trkpt lat="43.6513" lon="7.15334">
        <ele>9.8000001907349</ele>
        <time>2011-07-20T10:33:37.000Z</time>
      </trkpt>
      <trkpt lat="43.65118" lon="7.15319">
        <ele>8.8000001907349</ele>
        <time>2011-07-20T10:33:42.000Z</time>
      </trkpt>
      <trkpt lat="43.65116" lon="7.15316">
        <ele>8.6000003814697</ele>
        <time>2011-07-20T10:33:43.000Z</time>
      </trkpt>
      <trkpt lat="43.65105" lon="7.15299">
        <ele>7.5999999046326</ele>
        <time>2011-07-20T10:33:48.000Z</time>
      </trkpt>
      <trkpt lat="43.65102" lon="7.15296">
        <ele>7.4000000953674</ele>
        <time>2011-07-20T10:33:49.000Z</time>
      </trkpt>
      <trkpt lat="43.65088" lon="7.15278">
        <ele>6.5999999046326</ele>
        <time>2011-07-20T10:33:55.000Z</time>
      </trkpt>
      <trkpt lat="43.65077" lon="7.1526">
        <ele>6</ele>
        <time>2011-07-20T10:34:00.000Z</time>
      </trkpt>
      <trkpt lat="43.65075" lon="7.15257">
        <ele>5.8000001907349</ele>
        <time>2011-07-20T10:34:01.000Z</time>
      </trkpt>
      <trkpt lat="43.65063" lon="7.15238">
        <ele>5.5999999046326</ele>
        <time>2011-07-20T10:34:06.000Z</time>
      </trkpt>
      <trkpt lat="43.65049" lon="7.1522">
        <ele>5.1999998092651</ele>
        <time>2011-07-20T10:34:11.000Z</time>
      </trkpt>
      <trkpt lat="43.65036" lon="7.15203">
        <ele>4.8000001907349</ele>
        <time>2011-07-20T10:34:16.000Z</time>
      </trkpt>
      <trkpt lat="43.65034" lon="7.152">
        <ele>4.8000001907349</ele>
        <time>2011-07-20T10:34:17.000Z</time>
      </trkpt>
      <trkpt lat="43.65021" lon="7.15182">
        <ele>4.4000000953674</ele>
        <time>2011-07-20T10:34:22.000Z</time>
      </trkpt>
      <trkpt lat="43.65008" lon="7.15165">
        <ele>4</ele>
        <time>2011-07-20T10:34:27.000Z</time>
      </trkpt>
      <trkpt lat="43.64994" lon="7.15147">
        <ele>3.4000000953674</ele>
        <time>2011-07-20T10:34:32.000Z</time>
      </trkpt>
      <trkpt lat="43.64986" lon="7.15136">
        <ele>3.2000000476837</ele>
        <time>2011-07-20T10:34:35.000Z</time>
      </trkpt>
      <trkpt lat="43.64981" lon="7.15128">
        <ele>3.2000000476837</ele>
        <time>2011-07-20T10:34:37.000Z</time>
      </trkpt>
      <trkpt lat="43.64972" lon="7.15117">
        <ele>3.2000000476837</ele>
        <time>2011-07-20T10:34:40.000Z</time>
      </trkpt>
      <trkpt lat="43.64967" lon="7.1511">
        <ele>3.2000000476837</ele>
        <time>2011-07-20T10:34:42.000Z</time>
      </trkpt>
      <trkpt lat="43.64956" lon="7.15095">
        <ele>3.4000000953674</ele>
        <time>2011-07-20T10:34:46.000Z</time>
      </trkpt>
      <trkpt lat="43.64954" lon="7.15091">
        <ele>3.5999999046326</ele>
        <time>2011-07-20T10:34:47.000Z</time>
      </trkpt>
      <trkpt lat="43.64945" lon="7.1508">
        <ele>3.7999999523163</ele>
        <time>2011-07-20T10:34:50.000Z</time>
      </trkpt>
      <trkpt lat="43.64939" lon="7.15074">
        <ele>4</ele>
        <time>2011-07-20T10:34:52.000Z</time>
      </trkpt>
      <trkpt lat="43.6493" lon="7.15063">
        <ele>4</ele>
        <time>2011-07-20T10:34:55.000Z</time>
      </trkpt>
      <trkpt lat="43.64923" lon="7.15056">
        <ele>4</ele>
        <time>2011-07-20T10:34:57.000Z</time>
      </trkpt>
      <trkpt lat="43.64915" lon="7.15046">
        <ele>4</ele>
        <time>2011-07-20T10:35:00.000Z</time>
      </trkpt>
      <trkpt lat="43.64909" lon="7.15039">
        <ele>3.7999999523163</ele>
        <time>2011-07-20T10:35:02.000Z</time>
      </trkpt>
      <trkpt lat="43.64901" lon="7.15028">
        <ele>3.5999999046326</ele>
        <time>2011-07-20T10:35:05.000Z</time>
      </trkpt>
      <trkpt lat="43.64895" lon="7.15022">
        <ele>3.4000000953674</ele>
        <time>2011-07-20T10:35:07.000Z</time>
      </trkpt>
      <trkpt lat="43.64885" lon="7.15012">
        <ele>3.4000000953674</ele>
        <time>2011-07-20T10:35:10.000Z</time>
      </trkpt>
      <trkpt lat="43.64879" lon="7.15005">
        <ele>3.4000000953674</ele>
        <time>2011-07-20T10:35:12.000Z</time>
      </trkpt>
      <trkpt lat="43.64865" lon="7.14989">
        <ele>3.4000000953674</ele>
        <time>2011-07-20T10:35:17.000Z</time>
      </trkpt>
      <trkpt lat="43.64862" lon="7.14986">
        <ele>3.4000000953674</ele>
        <time>2011-07-20T10:35:18.000Z</time>
      </trkpt>
      <trkpt lat="43.6485" lon="7.14972">
        <ele>3.4000000953674</ele>
        <time>2011-07-20T10:35:22.000Z</time>
      </trkpt>
      <trkpt lat="43.64847" lon="7.14969">
        <ele>3.4000000953674</ele>
        <time>2011-07-20T10:35:23.000Z</time>
      </trkpt>
      <trkpt lat="43.64835" lon="7.14956">
        <ele>3.4000000953674</ele>
        <time>2011-07-20T10:35:27.000Z</time>
      </trkpt>
      <trkpt lat="43.64832" lon="7.14953">
        <ele>3.4000000953674</ele>
        <time>2011-07-20T10:35:28.000Z</time>
      </trkpt>
      <trkpt lat="43.6482" lon="7.1494">
        <ele>3</ele>
        <time>2011-07-20T10:35:32.000Z</time>
      </trkpt>
      <trkpt lat="43.64816" lon="7.14937">
        <ele>2.7999999523163</ele>
        <time>2011-07-20T10:35:33.000Z</time>
      </trkpt>
      <trkpt lat="43.64804" lon="7.14923">
        <ele>2.2000000476837</ele>
        <time>2011-07-20T10:35:37.000Z</time>
      </trkpt>
      <trkpt lat="43.64798" lon="7.14916">
        <ele>2</ele>
        <time>2011-07-20T10:35:39.000Z</time>
      </trkpt>
      <trkpt lat="43.64789" lon="7.14906">
        <ele>2</ele>
        <time>2011-07-20T10:35:42.000Z</time>
      </trkpt>
      <trkpt lat="43.64779" lon="7.14896">
        <ele>2</ele>
        <time>2011-07-20T10:35:45.000Z</time>
      </trkpt>
      <trkpt lat="43.64773" lon="7.1489">
        <ele>1.7999999523163</ele>
        <time>2011-07-20T10:35:47.000Z</time>
      </trkpt>
      <trkpt lat="43.64763" lon="7.1488">
        <ele>1.7999999523163</ele>
        <time>2011-07-20T10:35:50.000Z</time>
      </trkpt>
      <trkpt lat="43.64757" lon="7.14874">
        <ele>1.6000000238419</ele>
        <time>2011-07-20T10:35:52.000Z</time>
      </trkpt>
      <trkpt lat="43.64747" lon="7.14864">
        <ele>1.6000000238419</ele>
        <time>2011-07-20T10:35:55.000Z</time>
      </trkpt>
      <trkpt lat="43.64741" lon="7.14858">
        <ele>1.6000000238419</ele>
        <time>2011-07-20T10:35:57.000Z</time>
      </trkpt>
      <trkpt lat="43.64728" lon="7.14846">
        <ele>2</ele>
        <time>2011-07-20T10:36:01.000Z</time>
      </trkpt>
      <trkpt lat="43.64725" lon="7.14843">
        <ele>2.2000000476837</ele>
        <time>2011-07-20T10:36:02.000Z</time>
      </trkpt>
      <trkpt lat="43.64709" lon="7.14828">
        <ele>3</ele>
        <time>2011-07-20T10:36:07.000Z</time>
      </trkpt>
      <trkpt lat="43.64705" lon="7.14825">
        <ele>3</ele>
        <time>2011-07-20T10:36:08.000Z</time>
      </trkpt>
      <trkpt lat="43.64693" lon="7.14812">
        <ele>3.2000000476837</ele>
        <time>2011-07-20T10:36:12.000Z</time>
      </trkpt>
      <trkpt lat="43.64684" lon="7.14803">
        <ele>3.2000000476837</ele>
        <time>2011-07-20T10:36:15.000Z</time>
      </trkpt>
      <trkpt lat="43.64677" lon="7.14797">
        <ele>3</ele>
        <time>2011-07-20T10:36:17.000Z</time>
      </trkpt>
      <trkpt lat="43.64664" lon="7.14786">
        <ele>2.7999999523163</ele>
        <time>2011-07-20T10:36:21.000Z</time>
      </trkpt>
      <trkpt lat="43.64661" lon="7.14783">
        <ele>2.7999999523163</ele>
        <time>2011-07-20T10:36:22.000Z</time>
      </trkpt>
      <trkpt lat="43.64645" lon="7.1477">
        <ele>2.7999999523163</ele>
        <time>2011-07-20T10:36:27.000Z</time>
      </trkpt>
      <trkpt lat="43.6463" lon="7.14755">
        <ele>3</ele>
        <time>2011-07-20T10:36:32.000Z</time>
      </trkpt>
      <trkpt lat="43.64614" lon="7.14741">
        <ele>3.2000000476837</ele>
        <time>2011-07-20T10:36:37.000Z</time>
      </trkpt>
      <trkpt lat="43.64598" lon="7.14726">
        <ele>3.5999999046326</ele>
        <time>2011-07-20T10:36:42.000Z</time>
      </trkpt>
      <trkpt lat="43.64591" lon="7.1472">
        <ele>3.7999999523163</ele>
        <time>2011-07-20T10:36:44.000Z</time>
      </trkpt>
      <trkpt lat="43.64582" lon="7.1471">
        <ele>4</ele>
        <time>2011-07-20T10:36:47.000Z</time>
      </trkpt>
      <trkpt lat="43.64575" lon="7.14703">
        <ele>4.1999998092651</ele>
        <time>2011-07-20T10:36:49.000Z</time>
      </trkpt>
      <trkpt lat="43.64565" lon="7.14694">
        <ele>4.5999999046326</ele>
        <time>2011-07-20T10:36:52.000Z</time>
      </trkpt>
      <trkpt lat="43.64555" lon="7.14686">
        <ele>5.1999998092651</ele>
        <time>2011-07-20T10:36:55.000Z</time>
      </trkpt>
      <trkpt lat="43.64548" lon="7.1468">
        <ele>5.5999999046326</ele>
        <time>2011-07-20T10:36:57.000Z</time>
      </trkpt>
      <trkpt lat="43.64536" lon="7.14667">
        <ele>6.8000001907349</ele>
        <time>2011-07-20T10:37:01.000Z</time>
      </trkpt>
      <trkpt lat="43.64533" lon="7.14664">
        <ele>6.8000001907349</ele>
        <time>2011-07-20T10:37:02.000Z</time>
      </trkpt>
      <trkpt lat="43.64519" lon="7.1465">
        <ele>7.1999998092651</ele>
        <time>2011-07-20T10:37:06.000Z</time>
      </trkpt>
      <trkpt lat="43.64516" lon="7.14647">
        <ele>7.4000000953674</ele>
        <time>2011-07-20T10:37:07.000Z</time>
      </trkpt>
      <trkpt lat="43.645" lon="7.14632">
        <ele>7.5999999046326</ele>
        <time>2011-07-20T10:37:12.000Z</time>
      </trkpt>
      <trkpt lat="43.64484" lon="7.14619">
        <ele>7.4000000953674</ele>
        <time>2011-07-20T10:37:17.000Z</time>
      </trkpt>
      <trkpt lat="43.64477" lon="7.14613">
        <ele>7</ele>
        <time>2011-07-20T10:37:19.000Z</time>
      </trkpt>
      <trkpt lat="43.64468" lon="7.14603">
        <ele>6.5999999046326</ele>
        <time>2011-07-20T10:37:22.000Z</time>
      </trkpt>
      <trkpt lat="43.64457" lon="7.14593">
        <ele>6</ele>
        <time>2011-07-20T10:37:25.000Z</time>
      </trkpt>
      <trkpt lat="43.64451" lon="7.14587">
        <ele>5.5999999046326</ele>
        <time>2011-07-20T10:37:27.000Z</time>
      </trkpt>
      <trkpt lat="43.64441" lon="7.14578">
        <ele>5.1999998092651</ele>
        <time>2011-07-20T10:37:30.000Z</time>
      </trkpt>
      <trkpt lat="43.64434" lon="7.14571">
        <ele>5.1999998092651</ele>
        <time>2011-07-20T10:37:32.000Z</time>
      </trkpt>
      <trkpt lat="43.64421" lon="7.14558">
        <ele>5</ele>
        <time>2011-07-20T10:37:36.000Z</time>
      </trkpt>
      <trkpt lat="43.64418" lon="7.14555">
        <ele>5</ele>
        <time>2011-07-20T10:37:37.000Z</time>
      </trkpt>
      <trkpt lat="43.64405" lon="7.14539">
        <ele>4.8000001907349</ele>
        <time>2011-07-20T10:37:41.000Z</time>
      </trkpt>
      <trkpt lat="43.64402" lon="7.14536">
        <ele>4.8000001907349</ele>
        <time>2011-07-20T10:37:42.000Z</time>
      </trkpt>
      <trkpt lat="43.64389" lon="7.1452">
        <ele>4.4000000953674</ele>
        <time>2011-07-20T10:37:46.000Z</time>
      </trkpt>
      <trkpt lat="43.64386" lon="7.14517">
        <ele>4.1999998092651</ele>
        <time>2011-07-20T10:37:47.000Z</time>
      </trkpt>
      <trkpt lat="43.64373" lon="7.145">
        <ele>3.4000000953674</ele>
        <time>2011-07-20T10:37:51.000Z</time>
      </trkpt>
      <trkpt lat="43.64367" lon="7.14492">
        <ele>3.2000000476837</ele>
        <time>2011-07-20T10:37:53.000Z</time>
      </trkpt>
      <trkpt lat="43.64362" lon="7.14485">
        <ele>3.2000000476837</ele>
        <time>2011-07-20T10:37:55.000Z</time>
      </trkpt>
      <trkpt lat="43.64358" lon="7.14481">
        <ele>3.2000000476837</ele>
        <time>2011-07-20T10:37:57.000Z</time>
      </trkpt>
      <trkpt lat="43.64349" lon="7.14473">
        <ele>3</ele>
        <time>2011-07-20T10:38:02.000Z</time>
      </trkpt>
      <trkpt lat="43.64343" lon="7.14467">
        <ele>3</ele>
        <time>2011-07-20T10:38:05.000Z</time>
      </trkpt>
      <trkpt lat="43.64337" lon="7.14461">
        <ele>3</ele>
        <time>2011-07-20T10:38:08.000Z</time>
      </trkpt>
      <trkpt lat="43.64328" lon="7.14452">
        <ele>3.2000000476837</ele>
        <time>2011-07-20T10:38:12.000Z</time>
      </trkpt>
      <trkpt lat="43.64324" lon="7.14448">
        <ele>3.2000000476837</ele>
        <time>2011-07-20T10:38:14.000Z</time>
      </trkpt>
      <trkpt lat="43.64313" lon="7.14435">
        <ele>3.5999999046326</ele>
        <time>2011-07-20T10:38:19.000Z</time>
      </trkpt>
      <trkpt lat="43.6431" lon="7.14432">
        <ele>3.5999999046326</ele>
        <time>2011-07-20T10:38:20.000Z</time>
      </trkpt>
      <trkpt lat="43.64297" lon="7.14418">
        <ele>3.7999999523163</ele>
        <time>2011-07-20T10:38:26.000Z</time>
      </trkpt>
      <trkpt lat="43.64287" lon="7.14407">
        <ele>4</ele>
        <time>2011-07-20T10:38:31.000Z</time>
      </trkpt>
      <trkpt lat="43.64287" lon="7.14407">
        <ele>4</ele>
        <time>2011-07-20T10:38:32.000Z</time>
      </trkpt>
      <trkpt lat="43.64287" lon="7.14408">
        <ele>4</ele>
        <time>2011-07-20T10:38:33.000Z</time>
      </trkpt>
      <trkpt lat="43.6429" lon="7.14412">
        <ele>4</ele>
        <time>2011-07-20T10:38:35.000Z</time>
      </trkpt>
      <trkpt lat="43.64291" lon="7.1442">
        <ele>3.7999999523163</ele>
        <time>2011-07-20T10:38:38.000Z</time>
      </trkpt>
      <trkpt lat="43.64286" lon="7.14432">
        <ele>3.7999999523163</ele>
        <time>2011-07-20T10:38:42.000Z</time>
      </trkpt>
      <trkpt lat="43.64284" lon="7.14434">
        <ele>3.7999999523163</ele>
        <time>2011-07-20T10:38:43.000Z</time>
      </trkpt>
      <trkpt lat="43.64275" lon="7.14443">
        <ele>4</ele>
        <time>2011-07-20T10:38:47.000Z</time>
      </trkpt>
      <trkpt lat="43.64273" lon="7.14446">
        <ele>4</ele>
        <time>2011-07-20T10:38:48.000Z</time>
      </trkpt>
      <trkpt lat="43.64268" lon="7.1445">
        <ele>4</ele>
        <time>2011-07-20T10:38:50.000Z</time>
      </trkpt>
      <trkpt lat="43.64259" lon="7.14454">
        <ele>4.1999998092651</ele>
        <time>2011-07-20T10:38:53.000Z</time>
      </trkpt>
      <trkpt lat="43.6425" lon="7.14453">
        <ele>4.4000000953674</ele>
        <time>2011-07-20T10:38:56.000Z</time>
      </trkpt>
      <trkpt lat="43.64247" lon="7.14452">
        <ele>4.4000000953674</ele>
        <time>2011-07-20T10:38:57.000Z</time>
      </trkpt>
      <trkpt lat="43.64232" lon="7.14446">
        <ele>4.4000000953674</ele>
        <time>2011-07-20T10:39:02.000Z</time>
      </trkpt>
      <trkpt lat="43.64229" lon="7.14444">
        <ele>4.4000000953674</ele>
        <time>2011-07-20T10:39:03.000Z</time>
      </trkpt>
      <trkpt lat="43.64215" lon="7.14434">
        <ele>4.1999998092651</ele>
        <time>2011-07-20T10:39:08.000Z</time>
      </trkpt>
      <trkpt lat="43.64213" lon="7.14432">
        <ele>4.1999998092651</ele>
        <time>2011-07-20T10:39:09.000Z</time>
      </trkpt>
      <trkpt lat="43.64199" lon="7.1442">
        <ele>4</ele>
        <time>2011-07-20T10:39:14.000Z</time>
      </trkpt>
      <trkpt lat="43.64184" lon="7.14404">
        <ele>4</ele>
        <time>2011-07-20T10:39:20.000Z</time>
      </trkpt>
      <trkpt lat="43.64181" lon="7.144">
        <ele>4</ele>
        <time>2011-07-20T10:39:21.000Z</time>
      </trkpt>
      <trkpt lat="43.64168" lon="7.14386">
        <ele>4.1999998092651</ele>
        <time>2011-07-20T10:39:26.000Z</time>
      </trkpt>
      <trkpt lat="43.64163" lon="7.1438">
        <ele>4.8000001907349</ele>
        <time>2011-07-20T10:39:28.000Z</time>
      </trkpt>
      <trkpt lat="43.64153" lon="7.14369">
        <ele>5.4000000953674</ele>
        <time>2011-07-20T10:39:32.000Z</time>
      </trkpt>
      <trkpt lat="43.64148" lon="7.14364">
        <ele>5.5999999046326</ele>
        <time>2011-07-20T10:39:34.000Z</time>
      </trkpt>
      <trkpt lat="43.64138" lon="7.14352">
        <ele>5.8000001907349</ele>
        <time>2011-07-20T10:39:38.000Z</time>
      </trkpt>
      <trkpt lat="43.64135" lon="7.1435">
        <ele>5.8000001907349</ele>
        <time>2011-07-20T10:39:39.000Z</time>
      </trkpt>
      <trkpt lat="43.64122" lon="7.14335">
        <ele>5</ele>
        <time>2011-07-20T10:39:44.000Z</time>
      </trkpt>
      <trkpt lat="43.64117" lon="7.1433">
        <ele>4.8000001907349</ele>
        <time>2011-07-20T10:39:46.000Z</time>
      </trkpt>
      <trkpt lat="43.64106" lon="7.14318">
        <ele>4.8000001907349</ele>
        <time>2011-07-20T10:39:50.000Z</time>
      </trkpt>
      <trkpt lat="43.64103" lon="7.14316">
        <ele>4.8000001907349</ele>
        <time>2011-07-20T10:39:51.000Z</time>
      </trkpt>
      <trkpt lat="43.64089" lon="7.14302">
        <ele>4.8000001907349</ele>
        <time>2011-07-20T10:39:56.000Z</time>
      </trkpt>
      <trkpt lat="43.64083" lon="7.14297">
        <ele>4.8000001907349</ele>
        <time>2011-07-20T10:39:58.000Z</time>
      </trkpt>
      <trkpt lat="43.64072" lon="7.14286">
        <ele>4.4000000953674</ele>
        <time>2011-07-20T10:40:02.000Z</time>
      </trkpt>
      <trkpt lat="43.64062" lon="7.14276">
        <ele>3.7999999523163</ele>
        <time>2011-07-20T10:40:06.000Z</time>
      </trkpt>
      <trkpt lat="43.64056" lon="7.14271">
        <ele>3.5999999046326</ele>
        <time>2011-07-20T10:40:08.000Z</time>
      </trkpt>
      <trkpt lat="43.64047" lon="7.14264">
        <ele>3.4000000953674</ele>
        <time>2011-07-20T10:40:11.000Z</time>
      </trkpt>
      <trkpt lat="43.64038" lon="7.14257">
        <ele>3.2000000476837</ele>
        <time>2011-07-20T10:40:14.000Z</time>
      </trkpt>
      <trkpt lat="43.64028" lon="7.14251">
        <ele>3</ele>
        <time>2011-07-20T10:40:17.000Z</time>
      </trkpt>
      <trkpt lat="43.64019" lon="7.14246">
        <ele>2.7999999523163</ele>
        <time>2011-07-20T10:40:20.000Z</time>
      </trkpt>
      <trkpt lat="43.64013" lon="7.14242">
        <ele>2.7999999523163</ele>
        <time>2011-07-20T10:40:22.000Z</time>
      </trkpt>
      <trkpt lat="43.64002" lon="7.14232">
        <ele>3</ele>
        <time>2011-07-20T10:40:26.000Z</time>
      </trkpt>
      <trkpt lat="43.64" lon="7.14229">
        <ele>3.2000000476837</ele>
        <time>2011-07-20T10:40:27.000Z</time>
      </trkpt>
      <trkpt lat="43.6399" lon="7.14218">
        <ele>3.5999999046326</ele>
        <time>2011-07-20T10:40:31.000Z</time>
      </trkpt>
      <trkpt lat="43.63987" lon="7.14216">
        <ele>3.5999999046326</ele>
        <time>2011-07-20T10:40:32.000Z</time>
      </trkpt>
      <trkpt lat="43.63978" lon="7.1421">
        <ele>3.7999999523163</ele>
        <time>2011-07-20T10:40:35.000Z</time>
      </trkpt>
      <trkpt lat="43.63969" lon="7.14203">
        <ele>3.7999999523163</ele>
        <time>2011-07-20T10:40:38.000Z</time>
      </trkpt>
      <trkpt lat="43.63964" lon="7.14199">
        <ele>3.7999999523163</ele>
        <time>2011-07-20T10:40:40.000Z</time>
      </trkpt>
      <trkpt lat="43.63951" lon="7.14191">
        <ele>3.7999999523163</ele>
        <time>2011-07-20T10:40:45.000Z</time>
      </trkpt>
      <trkpt lat="43.63934" lon="7.14177">
        <ele>3.4000000953674</ele>
        <time>2011-07-20T10:40:51.000Z</time>
      </trkpt>
      <trkpt lat="43.63921" lon="7.14167">
        <ele>3.2000000476837</ele>
        <time>2011-07-20T10:40:56.000Z</time>
      </trkpt>
      <trkpt lat="43.63915" lon="7.14164">
        <ele>3</ele>
        <time>2011-07-20T10:40:58.000Z</time>
      </trkpt>
      <trkpt lat="43.63907" lon="7.14157">
        <ele>3.4000000953674</ele>
        <time>2011-07-20T10:41:01.000Z</time>
      </trkpt>
      <trkpt lat="43.63898" lon="7.14153">
        <ele>3.5999999046326</ele>
        <time>2011-07-20T10:41:04.000Z</time>
      </trkpt>
      <trkpt lat="43.63894" lon="7.14147">
        <ele>3.7999999523163</ele>
        <time>2011-07-20T10:41:06.000Z</time>
      </trkpt>
      <trkpt lat="43.63896" lon="7.14133">
        <ele>3.7999999523163</ele>
        <time>2011-07-20T10:41:09.000Z</time>
      </trkpt>
      <trkpt lat="43.63897" lon="7.14129">
        <ele>3.7999999523163</ele>
        <time>2011-07-20T10:41:10.000Z</time>
      </trkpt>
      <trkpt lat="43.63905" lon="7.14114">
        <ele>3.7999999523163</ele>
        <time>2011-07-20T10:41:14.000Z</time>
      </trkpt>
      <trkpt lat="43.63908" lon="7.14105">
        <ele>3.7999999523163</ele>
        <time>2011-07-20T10:41:16.000Z</time>
      </trkpt>
      <trkpt lat="43.6391" lon="7.14096">
        <ele>3.7999999523163</ele>
        <time>2011-07-20T10:41:18.000Z</time>
      </trkpt>
      <trkpt lat="43.63916" lon="7.14079">
        <ele>4</ele>
        <time>2011-07-20T10:41:22.000Z</time>
      </trkpt>
      <trkpt lat="43.63918" lon="7.14075">
        <ele>4</ele>
        <time>2011-07-20T10:41:23.000Z</time>
      </trkpt>
      <trkpt lat="43.63928" lon="7.14059">
        <ele>4.5999999046326</ele>
        <time>2011-07-20T10:41:28.000Z</time>
      </trkpt>
      <trkpt lat="43.63929" lon="7.14058">
        <ele>4.5999999046326</ele>
        <time>2011-07-20T10:41:29.000Z</time>
      </trkpt>
      <trkpt lat="43.63932" lon="7.14053">
        <ele>4.5999999046326</ele>
        <time>2011-07-20T10:41:32.000Z</time>
      </trkpt>
      <trkpt lat="43.63943" lon="7.14046">
        <ele>5</ele>
        <time>2011-07-20T10:41:36.000Z</time>
      </trkpt>
      <trkpt lat="43.63957" lon="7.1404">
        <ele>5.4000000953674</ele>
        <time>2011-07-20T10:41:40.000Z</time>
      </trkpt>
      <trkpt lat="43.63963" lon="7.14038">
        <ele>5.5999999046326</ele>
        <time>2011-07-20T10:41:42.000Z</time>
      </trkpt>
      <trkpt lat="43.63973" lon="7.14033">
        <ele>5.8000001907349</ele>
        <time>2011-07-20T10:41:45.000Z</time>
      </trkpt>
      <trkpt lat="43.63983" lon="7.14029">
        <ele>5.8000001907349</ele>
        <time>2011-07-20T10:41:48.000Z</time>
      </trkpt>
      <trkpt lat="43.63992" lon="7.14025">
        <ele>6</ele>
        <time>2011-07-20T10:41:51.000Z</time>
      </trkpt>
      <trkpt lat="43.64002" lon="7.14021">
        <ele>6.1999998092651</ele>
        <time>2011-07-20T10:41:54.000Z</time>
      </trkpt>
      <trkpt lat="43.64008" lon="7.14019">
        <ele>6.1999998092651</ele>
        <time>2011-07-20T10:41:56.000Z</time>
      </trkpt>
      <trkpt lat="43.6402" lon="7.14028">
        <ele>6.4000000953674</ele>
        <time>2011-07-20T10:42:00.000Z</time>
      </trkpt>
      <trkpt lat="43.64029" lon="7.14049">
        <ele>6.5999999046326</ele>
        <time>2011-07-20T10:42:05.000Z</time>
      </trkpt>
      <trkpt lat="43.64031" lon="7.14053">
        <ele>6.5999999046326</ele>
        <time>2011-07-20T10:42:06.000Z</time>
      </trkpt>
      <trkpt lat="43.64039" lon="7.1407">
        <ele>6.8000001907349</ele>
        <time>2011-07-20T10:42:10.000Z</time>
      </trkpt>
      <trkpt lat="43.64043" lon="7.14078">
        <ele>6.8000001907349</ele>
        <time>2011-07-20T10:42:12.000Z</time>
      </trkpt>
      <trkpt lat="43.64052" lon="7.14095">
        <ele>6.8000001907349</ele>
        <time>2011-07-20T10:42:17.000Z</time>
      </trkpt>
      <trkpt lat="43.64054" lon="7.14099">
        <ele>6.8000001907349</ele>
        <time>2011-07-20T10:42:18.000Z</time>
      </trkpt>
      <trkpt lat="43.64065" lon="7.14118">
        <ele>6.5999999046326</ele>
        <time>2011-07-20T10:42:23.000Z</time>
      </trkpt>
      <trkpt lat="43.64067" lon="7.14121">
        <ele>6.5999999046326</ele>
        <time>2011-07-20T10:42:24.000Z</time>
      </trkpt>
      <trkpt lat="43.64076" lon="7.14136">
        <ele>6.4000000953674</ele>
        <time>2011-07-20T10:42:28.000Z</time>
      </trkpt>
      <trkpt lat="43.64081" lon="7.14143">
        <ele>6.1999998092651</ele>
        <time>2011-07-20T10:42:30.000Z</time>
      </trkpt>
      <trkpt lat="43.64087" lon="7.14161">
        <ele>5.8000001907349</ele>
        <time>2011-07-20T10:42:34.000Z</time>
      </trkpt>
      <trkpt lat="43.6409" lon="7.14169">
        <ele>5.8000001907349</ele>
        <time>2011-07-20T10:42:36.000Z</time>
      </trkpt>
      <trkpt lat="43.64099" lon="7.14183">
        <ele>5.4000000953674</ele>
        <time>2011-07-20T10:42:40.000Z</time>
      </trkpt>
      <trkpt lat="43.64104" lon="7.1419">
        <ele>5.1999998092651</ele>
        <time>2011-07-20T10:42:42.000Z</time>
      </trkpt>
      <trkpt lat="43.64109" lon="7.14196">
        <ele>5</ele>
        <time>2011-07-20T10:42:44.000Z</time>
      </trkpt>
      <trkpt lat="43.6412" lon="7.14205">
        <ele>4.8000001907349</ele>
        <time>2011-07-20T10:42:48.000Z</time>
      </trkpt>
      <trkpt lat="43.64122" lon="7.14208">
        <ele>4.8000001907349</ele>
        <time>2011-07-20T10:42:49.000Z</time>
      </trkpt>
      <trkpt lat="43.64134" lon="7.14225">
        <ele>4.4000000953674</ele>
        <time>2011-07-20T10:42:54.000Z</time>
      </trkpt>
      <trkpt lat="43.64136" lon="7.14228">
        <ele>4.4000000953674</ele>
        <time>2011-07-20T10:42:55.000Z</time>
      </trkpt>
      <trkpt lat="43.6415" lon="7.14244">
        <ele>4.1999998092651</ele>
        <time>2011-07-20T10:43:00.000Z</time>
      </trkpt>
      <trkpt lat="43.64161" lon="7.14258">
        <ele>4</ele>
        <time>2011-07-20T10:43:05.000Z</time>
      </trkpt>
      <trkpt lat="43.64163" lon="7.14261">
        <ele>4</ele>
        <time>2011-07-20T10:43:06.000Z</time>
      </trkpt>
      <trkpt lat="43.64172" lon="7.14273">
        <ele>4.1999998092651</ele>
        <time>2011-07-20T10:43:10.000Z</time>
      </trkpt>
      <trkpt lat="43.64177" lon="7.14279">
        <ele>4.1999998092651</ele>
        <time>2011-07-20T10:43:12.000Z</time>
      </trkpt>
      <trkpt lat="43.64189" lon="7.14295">
        <ele>4.1999998092651</ele>
        <time>2011-07-20T10:43:17.000Z</time>
      </trkpt>
      <trkpt lat="43.64192" lon="7.14299">
        <ele>4.4000000953674</ele>
        <time>2011-07-20T10:43:18.000Z</time>
      </trkpt>
      <trkpt lat="43.64199" lon="7.14308">
        <ele>4.4000000953674</ele>
        <time>2011-07-20T10:43:21.000Z</time>
      </trkpt>
      <trkpt lat="43.64207" lon="7.14317">
        <ele>4.4000000953674</ele>
        <time>2011-07-20T10:43:24.000Z</time>
      </trkpt>
      <trkpt lat="43.6421" lon="7.1432">
        <ele>4.4000000953674</ele>
        <time>2011-07-20T10:43:25.000Z</time>
      </trkpt>
      <trkpt lat="43.64223" lon="7.14334">
        <ele>4.1999998092651</ele>
        <time>2011-07-20T10:43:30.000Z</time>
      </trkpt>
      <trkpt lat="43.64226" lon="7.14337">
        <ele>4.1999998092651</ele>
        <time>2011-07-20T10:43:31.000Z</time>
      </trkpt>
      <trkpt lat="43.6424" lon="7.14348">
        <ele>4</ele>
        <time>2011-07-20T10:43:36.000Z</time>
      </trkpt>
      <trkpt lat="43.64258" lon="7.14362">
        <ele>4</ele>
        <time>2011-07-20T10:43:42.000Z</time>
      </trkpt>
      <trkpt lat="43.64272" lon="7.14381">
        <ele>4</ele>
        <time>2011-07-20T10:43:48.000Z</time>
      </trkpt>
      <trkpt lat="43.64284" lon="7.14396">
        <ele>4</ele>
        <time>2011-07-20T10:43:53.000Z</time>
      </trkpt>
      <trkpt lat="43.64286" lon="7.144">
        <ele>4</ele>
        <time>2011-07-20T10:43:54.000Z</time>
      </trkpt>
      <trkpt lat="43.6429" lon="7.14408">
        <ele>4</ele>
        <time>2011-07-20T10:43:57.000Z</time>
      </trkpt>
      <trkpt lat="43.64295" lon="7.14413">
        <ele>4</ele>
        <time>2011-07-20T10:44:00.000Z</time>
      </trkpt>
      <trkpt lat="43.64299" lon="7.14411">
        <ele>4</ele>
        <time>2011-07-20T10:44:02.000Z</time>
      </trkpt>
      <trkpt lat="43.64302" lon="7.14405">
        <ele>4</ele>
        <time>2011-07-20T10:44:04.000Z</time>
      </trkpt>
      <trkpt lat="43.64312" lon="7.14389">
        <ele>4.1999998092651</ele>
        <time>2011-07-20T10:44:07.000Z</time>
      </trkpt>
      <trkpt lat="43.64312" lon="7.14383">
        <ele>4.1999998092651</ele>
        <time>2011-07-20T10:44:08.000Z</time>
      </trkpt>
      <trkpt lat="43.64312" lon="7.14376">
        <ele>4.1999998092651</ele>
        <time>2011-07-20T10:44:12.000Z</time>
      </trkpt>
      <trkpt lat="43.64304" lon="7.14373">
        <ele>4.1999998092651</ele>
        <time>2011-07-20T10:44:17.000Z</time>
      </trkpt>
      <trkpt lat="43.64301" lon="7.14372">
        <ele>4.1999998092651</ele>
        <time>2011-07-20T10:44:18.000Z</time>
      </trkpt>
      <trkpt lat="43.64293" lon="7.14365">
        <ele>4.1999998092651</ele>
        <time>2011-07-20T10:44:21.000Z</time>
      </trkpt>
      <trkpt lat="43.64292" lon="7.14362">
        <ele>4.1999998092651</ele>
        <time>2011-07-20T10:44:22.000Z</time>
      </trkpt>
      <trkpt lat="43.64294" lon="7.14353">
        <ele>4.1999998092651</ele>
        <time>2011-07-20T10:44:24.000Z</time>
      </trkpt>
      <trkpt lat="43.64302" lon="7.14337">
        <ele>4.4000000953674</ele>
        <time>2011-07-20T10:44:28.000Z</time>
      </trkpt>
      <trkpt lat="43.64306" lon="7.14329">
        <ele>4.5999999046326</ele>
        <time>2011-07-20T10:44:30.000Z</time>
      </trkpt>
      <trkpt lat="43.64312" lon="7.14318">
        <ele>4.8000001907349</ele>
        <time>2011-07-20T10:44:33.000Z</time>
      </trkpt>
      <trkpt lat="43.64318" lon="7.14308">
        <ele>5</ele>
        <time>2011-07-20T10:44:36.000Z</time>
      </trkpt>
      <trkpt lat="43.64324" lon="7.14298">
        <ele>5.1999998092651</ele>
        <time>2011-07-20T10:44:39.000Z</time>
      </trkpt>
      <trkpt lat="43.64331" lon="7.14288">
        <ele>5.4000000953674</ele>
        <time>2011-07-20T10:44:42.000Z</time>
      </trkpt>
      <trkpt lat="43.64337" lon="7.14277">
        <ele>5.5999999046326</ele>
        <time>2011-07-20T10:44:45.000Z</time>
      </trkpt>
      <trkpt lat="43.64342" lon="7.14266">
        <ele>5.5999999046326</ele>
        <time>2011-07-20T10:44:48.000Z</time>
      </trkpt>
      <trkpt lat="43.64344" lon="7.14262">
        <ele>5.5999999046326</ele>
        <time>2011-07-20T10:44:49.000Z</time>
      </trkpt>
      <trkpt lat="43.64354" lon="7.14246">
        <ele>5.5999999046326</ele>
        <time>2011-07-20T10:44:54.000Z</time>
      </trkpt>
      <trkpt lat="43.64356" lon="7.14242">
        <ele>5.5999999046326</ele>
        <time>2011-07-20T10:44:55.000Z</time>
      </trkpt>
      <trkpt lat="43.64367" lon="7.14225">
        <ele>5.5999999046326</ele>
        <time>2011-07-20T10:45:00.000Z</time>
      </trkpt>
      <trkpt lat="43.64369" lon="7.14221">
        <ele>5.5999999046326</ele>
        <time>2011-07-20T10:45:01.000Z</time>
      </trkpt>
      <trkpt lat="43.6438" lon="7.14206">
        <ele>5.5999999046326</ele>
        <time>2011-07-20T10:45:06.000Z</time>
      </trkpt>
      <trkpt lat="43.64391" lon="7.14188">
        <ele>5.8000001907349</ele>
        <time>2011-07-20T10:45:11.000Z</time>
      </trkpt>
      <trkpt lat="43.64393" lon="7.14185">
        <ele>5.8000001907349</ele>
        <time>2011-07-20T10:45:12.000Z</time>
      </trkpt>
      <trkpt lat="43.64407" lon="7.14166">
        <ele>5.8000001907349</ele>
        <time>2011-07-20T10:45:18.000Z</time>
      </trkpt>
      <trkpt lat="43.64409" lon="7.14163">
        <ele>5.8000001907349</ele>
        <time>2011-07-20T10:45:19.000Z</time>
      </trkpt>
      <trkpt lat="43.64418" lon="7.14145">
        <ele>5.8000001907349</ele>
        <time>2011-07-20T10:45:23.000Z</time>
      </trkpt>
      <trkpt lat="43.64433" lon="7.1413">
        <ele>5.8000001907349</ele>
        <time>2011-07-20T10:45:28.000Z</time>
      </trkpt>
      <trkpt lat="43.64452" lon="7.14125">
        <ele>6</ele>
        <time>2011-07-20T10:45:33.000Z</time>
      </trkpt>
      <trkpt lat="43.6447" lon="7.14118">
        <ele>6.1999998092651</ele>
        <time>2011-07-20T10:45:38.000Z</time>
      </trkpt>
      <trkpt lat="43.64488" lon="7.14106">
        <ele>6.5999999046326</ele>
        <time>2011-07-20T10:45:43.000Z</time>
      </trkpt>
      <trkpt lat="43.64506" lon="7.14094">
        <ele>7.4000000953674</ele>
        <time>2011-07-20T10:45:48.000Z</time>
      </trkpt>
      <trkpt lat="43.64509" lon="7.14091">
        <ele>7.4000000953674</ele>
        <time>2011-07-20T10:45:49.000Z</time>
      </trkpt>
      <trkpt lat="43.64524" lon="7.1408">
        <ele>7.5999999046326</ele>
        <time>2011-07-20T10:45:53.000Z</time>
      </trkpt>
      <trkpt lat="43.64532" lon="7.14076">
        <ele>7.4000000953674</ele>
        <time>2011-07-20T10:45:55.000Z</time>
      </trkpt>
      <trkpt lat="43.64535" lon="7.14073">
        <ele>7.4000000953674</ele>
        <time>2011-07-20T10:45:56.000Z</time>
      </trkpt>
      <trkpt lat="43.64542" lon="7.14068">
        <ele>7.4000000953674</ele>
        <time>2011-07-20T10:45:58.000Z</time>
      </trkpt>
      <trkpt lat="43.64556" lon="7.14058">
        <ele>7.1999998092651</ele>
        <time>2011-07-20T10:46:02.000Z</time>
      </trkpt>
      <trkpt lat="43.6456" lon="7.14056">
        <ele>7</ele>
        <time>2011-07-20T10:46:03.000Z</time>
      </trkpt>
      <trkpt lat="43.64571" lon="7.14048">
        <ele>7</ele>
        <time>2011-07-20T10:46:06.000Z</time>
      </trkpt>
      <trkpt lat="43.64578" lon="7.14044">
        <ele>7</ele>
        <time>2011-07-20T10:46:08.000Z</time>
      </trkpt>
      <trkpt lat="43.64596" lon="7.14032">
        <ele>6.5999999046326</ele>
        <time>2011-07-20T10:46:13.000Z</time>
      </trkpt>
      <trkpt lat="43.64613" lon="7.14019">
        <ele>6.1999998092651</ele>
        <time>2011-07-20T10:46:18.000Z</time>
      </trkpt>
      <trkpt lat="43.64616" lon="7.14016">
        <ele>6.1999998092651</ele>
        <time>2011-07-20T10:46:19.000Z</time>
      </trkpt>
      <trkpt lat="43.64629" lon="7.14003">
        <ele>5.8000001907349</ele>
        <time>2011-07-20T10:46:23.000Z</time>
      </trkpt>
      <trkpt lat="43.64635" lon="7.13996">
        <ele>5.5999999046326</ele>
        <time>2011-07-20T10:46:25.000Z</time>
      </trkpt>
      <trkpt lat="43.64645" lon="7.13987">
        <ele>5.5999999046326</ele>
        <time>2011-07-20T10:46:28.000Z</time>
      </trkpt>
      <trkpt lat="43.64654" lon="7.13976">
        <ele>5.4000000953674</ele>
        <time>2011-07-20T10:46:31.000Z</time>
      </trkpt>
      <trkpt lat="43.64661" lon="7.13969">
        <ele>5.4000000953674</ele>
        <time>2011-07-20T10:46:33.000Z</time>
      </trkpt>
      <trkpt lat="43.64672" lon="7.13956">
        <ele>5.4000000953674</ele>
        <time>2011-07-20T10:46:37.000Z</time>
      </trkpt>
      <trkpt lat="43.64675" lon="7.13951">
        <ele>5.4000000953674</ele>
        <time>2011-07-20T10:46:38.000Z</time>
      </trkpt>
      <trkpt lat="43.64684" lon="7.13935">
        <ele>5.5999999046326</ele>
        <time>2011-07-20T10:46:42.000Z</time>
      </trkpt>
      <trkpt lat="43.64687" lon="7.13931">
        <ele>5.8000001907349</ele>
        <time>2011-07-20T10:46:43.000Z</time>
      </trkpt>
      <trkpt lat="43.64696" lon="7.13914">
        <ele>6</ele>
        <time>2011-07-20T10:46:47.000Z</time>
      </trkpt>
      <trkpt lat="43.64698" lon="7.1391">
        <ele>6</ele>
        <time>2011-07-20T10:46:48.000Z</time>
      </trkpt>
      <trkpt lat="43.6471" lon="7.13892">
        <ele>6.4000000953674</ele>
        <time>2011-07-20T10:46:53.000Z</time>
      </trkpt>
      <trkpt lat="43.64713" lon="7.13889">
        <ele>6.4000000953674</ele>
        <time>2011-07-20T10:46:54.000Z</time>
      </trkpt>
      <trkpt lat="43.64716" lon="7.1389">
        <ele>6.4000000953674</ele>
        <time>2011-07-20T10:46:55.000Z</time>
      </trkpt>
      <trkpt lat="43.64723" lon="7.1389">
        <ele>6.4000000953674</ele>
        <time>2011-07-20T10:46:57.000Z</time>
      </trkpt>
      <trkpt lat="43.64731" lon="7.1389">
        <ele>6.4000000953674</ele>
        <time>2011-07-20T10:46:59.000Z</time>
      </trkpt>
      <trkpt lat="43.64757" lon="7.13879">
        <ele>6.8000001907349</ele>
        <time>2011-07-20T10:47:05.000Z</time>
      </trkpt>
      <trkpt lat="43.64766" lon="7.13871">
        <ele>7.1999998092651</ele>
        <time>2011-07-20T10:47:07.000Z</time>
      </trkpt>
      <trkpt lat="43.64763" lon="7.13863">
        <ele>7.4000000953674</ele>
        <time>2011-07-20T10:47:09.000Z</time>
      </trkpt>
      <trkpt lat="43.64763" lon="7.13849">
        <ele>7.5999999046326</ele>
        <time>2011-07-20T10:47:13.000Z</time>
      </trkpt>
      <trkpt lat="43.64763" lon="7.13844">
        <ele>7.8000001907349</ele>
        <time>2011-07-20T10:47:14.000Z</time>
      </trkpt>
      <trkpt lat="43.64763" lon="7.13834">
        <ele>8</ele>
        <time>2011-07-20T10:47:16.000Z</time>
      </trkpt>
      <trkpt lat="43.64766" lon="7.13821">
        <ele>8.1999998092651</ele>
        <time>2011-07-20T10:47:19.000Z</time>
      </trkpt>
      <trkpt lat="43.64771" lon="7.1381">
        <ele>8.3999996185303</ele>
        <time>2011-07-20T10:47:22.000Z</time>
      </trkpt>
      <trkpt lat="43.64776" lon="7.13801">
        <ele>8.3999996185303</ele>
        <time>2011-07-20T10:47:25.000Z</time>
      </trkpt>
      <trkpt lat="43.64784" lon="7.13789">
        <ele>8.6000003814697</ele>
        <time>2011-07-20T10:47:30.000Z</time>
      </trkpt>
      <trkpt lat="43.64793" lon="7.13774">
        <ele>8.8000001907349</ele>
        <time>2011-07-20T10:47:35.000Z</time>
      </trkpt>
      <trkpt lat="43.64796" lon="7.13768">
        <ele>8.8000001907349</ele>
        <time>2011-07-20T10:47:37.000Z</time>
      </trkpt>
      <trkpt lat="43.64799" lon="7.13762">
        <ele>8.8000001907349</ele>
        <time>2011-07-20T10:47:39.000Z</time>
      </trkpt>
      <trkpt lat="43.64807" lon="7.13745">
        <ele>9</ele>
        <time>2011-07-20T10:47:44.000Z</time>
      </trkpt>
      <trkpt lat="43.64809" lon="7.13742">
        <ele>9</ele>
        <time>2011-07-20T10:47:45.000Z</time>
      </trkpt>
      <trkpt lat="43.64818" lon="7.13725">
        <ele>9.1999998092651</ele>
        <time>2011-07-20T10:47:50.000Z</time>
      </trkpt>
      <trkpt lat="43.6482" lon="7.13722">
        <ele>9.1999998092651</ele>
        <time>2011-07-20T10:47:51.000Z</time>
      </trkpt>
      <trkpt lat="43.64829" lon="7.13705">
        <ele>9</ele>
        <time>2011-07-20T10:47:56.000Z</time>
      </trkpt>
      <trkpt lat="43.64831" lon="7.13702">
        <ele>9</ele>
        <time>2011-07-20T10:47:57.000Z</time>
      </trkpt>
      <trkpt lat="43.64839" lon="7.13689">
        <ele>9.3999996185303</ele>
        <time>2011-07-20T10:48:01.000Z</time>
      </trkpt>
      <trkpt lat="43.64843" lon="7.13683">
        <ele>9.8000001907349</ele>
        <time>2011-07-20T10:48:03.000Z</time>
      </trkpt>
      <trkpt lat="43.64852" lon="7.13671">
        <ele>10.199999809265</ele>
        <time>2011-07-20T10:48:07.000Z</time>
      </trkpt>
      <trkpt lat="43.64856" lon="7.13664">
        <ele>10.60000038147</ele>
        <time>2011-07-20T10:48:09.000Z</time>
      </trkpt>
      <trkpt lat="43.64866" lon="7.13652">
        <ele>11.199999809265</ele>
        <time>2011-07-20T10:48:13.000Z</time>
      </trkpt>
      <trkpt lat="43.64871" lon="7.13647">
        <ele>11.39999961853</ele>
        <time>2011-07-20T10:48:15.000Z</time>
      </trkpt>
      <trkpt lat="43.64883" lon="7.13633">
        <ele>11.800000190735</ele>
        <time>2011-07-20T10:48:20.000Z</time>
      </trkpt>
      <trkpt lat="43.64886" lon="7.1363">
        <ele>11.800000190735</ele>
        <time>2011-07-20T10:48:21.000Z</time>
      </trkpt>
      <trkpt lat="43.64896" lon="7.13619">
        <ele>12</ele>
        <time>2011-07-20T10:48:25.000Z</time>
      </trkpt>
      <trkpt lat="43.649" lon="7.13614">
        <ele>12</ele>
        <time>2011-07-20T10:48:27.000Z</time>
      </trkpt>
      <trkpt lat="43.64907" lon="7.13604">
        <ele>11.800000190735</ele>
        <time>2011-07-20T10:48:30.000Z</time>
      </trkpt>
      <trkpt lat="43.64913" lon="7.13594">
        <ele>11.39999961853</ele>
        <time>2011-07-20T10:48:33.000Z</time>
      </trkpt>
      <trkpt lat="43.6492" lon="7.13584">
        <ele>11</ele>
        <time>2011-07-20T10:48:36.000Z</time>
      </trkpt>
      <trkpt lat="43.64925" lon="7.13574">
        <ele>11.39999961853</ele>
        <time>2011-07-20T10:48:39.000Z</time>
      </trkpt>
      <trkpt lat="43.64929" lon="7.13566">
        <ele>11.800000190735</ele>
        <time>2011-07-20T10:48:41.000Z</time>
      </trkpt>
      <trkpt lat="43.64935" lon="7.1355">
        <ele>12.39999961853</ele>
        <time>2011-07-20T10:48:45.000Z</time>
      </trkpt>
      <trkpt lat="43.64937" lon="7.13542">
        <ele>12.60000038147</ele>
        <time>2011-07-20T10:48:47.000Z</time>
      </trkpt>
      <trkpt lat="43.64942" lon="7.13525">
        <ele>12.800000190735</ele>
        <time>2011-07-20T10:48:51.000Z</time>
      </trkpt>
      <trkpt lat="43.64943" lon="7.13521">
        <ele>12.800000190735</ele>
        <time>2011-07-20T10:48:52.000Z</time>
      </trkpt>
      <trkpt lat="43.64944" lon="7.13499">
        <ele>13.39999961853</ele>
        <time>2011-07-20T10:48:57.000Z</time>
      </trkpt>
      <trkpt lat="43.64946" lon="7.13476">
        <ele>15</ele>
        <time>2011-07-20T10:49:02.000Z</time>
      </trkpt>
      <trkpt lat="43.64946" lon="7.13472">
        <ele>15.39999961853</ele>
        <time>2011-07-20T10:49:03.000Z</time>
      </trkpt>
      <trkpt lat="43.64946" lon="7.1346">
        <ele>16.200000762939</ele>
        <time>2011-07-20T10:49:06.000Z</time>
      </trkpt>
      <trkpt lat="43.64944" lon="7.13447">
        <ele>17.39999961853</ele>
        <time>2011-07-20T10:49:09.000Z</time>
      </trkpt>
      <trkpt lat="43.64943" lon="7.13435">
        <ele>18.60000038147</ele>
        <time>2011-07-20T10:49:12.000Z</time>
      </trkpt>
      <trkpt lat="43.64942" lon="7.13422">
        <ele>20</ele>
        <time>2011-07-20T10:49:15.000Z</time>
      </trkpt>
      <trkpt lat="43.64939" lon="7.13406">
        <ele>20.799999237061</ele>
        <time>2011-07-20T10:49:19.000Z</time>
      </trkpt>
      <trkpt lat="43.64937" lon="7.13397">
        <ele>20.799999237061</ele>
        <time>2011-07-20T10:49:21.000Z</time>
      </trkpt>
      <trkpt lat="43.64936" lon="7.13383">
        <ele>20.799999237061</ele>
        <time>2011-07-20T10:49:24.000Z</time>
      </trkpt>
      <trkpt lat="43.64934" lon="7.13371">
        <ele>21</ele>
        <time>2011-07-20T10:49:27.000Z</time>
      </trkpt>
      <trkpt lat="43.64932" lon="7.13357">
        <ele>21</ele>
        <time>2011-07-20T10:49:30.000Z</time>
      </trkpt>
      <trkpt lat="43.64931" lon="7.13344">
        <ele>21.200000762939</ele>
        <time>2011-07-20T10:49:33.000Z</time>
      </trkpt>
      <trkpt lat="43.6493" lon="7.13326">
        <ele>20.60000038147</ele>
        <time>2011-07-20T10:49:37.000Z</time>
      </trkpt>
      <trkpt lat="43.6493" lon="7.13317">
        <ele>19.60000038147</ele>
        <time>2011-07-20T10:49:39.000Z</time>
      </trkpt>
      <trkpt lat="43.64931" lon="7.13304">
        <ele>18</ele>
        <time>2011-07-20T10:49:42.000Z</time>
      </trkpt>
      <trkpt lat="43.64933" lon="7.1329">
        <ele>16.39999961853</ele>
        <time>2011-07-20T10:49:45.000Z</time>
      </trkpt>
      <trkpt lat="43.64935" lon="7.13277">
        <ele>14.800000190735</ele>
        <time>2011-07-20T10:49:48.000Z</time>
      </trkpt>
      <trkpt lat="43.64938" lon="7.13264">
        <ele>13.199999809265</ele>
        <time>2011-07-20T10:49:51.000Z</time>
      </trkpt>
      <trkpt lat="43.64942" lon="7.13255">
        <ele>12.199999809265</ele>
        <time>2011-07-20T10:49:53.000Z</time>
      </trkpt>
      <trkpt lat="43.64947" lon="7.13241">
        <ele>11.199999809265</ele>
        <time>2011-07-20T10:49:56.000Z</time>
      </trkpt>
      <trkpt lat="43.64949" lon="7.13232">
        <ele>10.800000190735</ele>
        <time>2011-07-20T10:49:58.000Z</time>
      </trkpt>
      <trkpt lat="43.64954" lon="7.13214">
        <ele>10</ele>
        <time>2011-07-20T10:50:02.000Z</time>
      </trkpt>
      <trkpt lat="43.64956" lon="7.13205">
        <ele>9.8000001907349</ele>
        <time>2011-07-20T10:50:04.000Z</time>
      </trkpt>
      <trkpt lat="43.6496" lon="7.13187">
        <ele>9.1999998092651</ele>
        <time>2011-07-20T10:50:08.000Z</time>
      </trkpt>
      <trkpt lat="43.64964" lon="7.13174">
        <ele>8.8000001907349</ele>
        <time>2011-07-20T10:50:11.000Z</time>
      </trkpt>
      <trkpt lat="43.64967" lon="7.13161">
        <ele>8.3999996185303</ele>
        <time>2011-07-20T10:50:14.000Z</time>
      </trkpt>
      <trkpt lat="43.6497" lon="7.13152">
        <ele>8</ele>
        <time>2011-07-20T10:50:16.000Z</time>
      </trkpt>
      <trkpt lat="43.64976" lon="7.13135">
        <ele>7.4000000953674</ele>
        <time>2011-07-20T10:50:20.000Z</time>
      </trkpt>
      <trkpt lat="43.64979" lon="7.13127">
        <ele>7</ele>
        <time>2011-07-20T10:50:22.000Z</time>
      </trkpt>
      <trkpt lat="43.64985" lon="7.1311">
        <ele>6.5999999046326</ele>
        <time>2011-07-20T10:50:26.000Z</time>
      </trkpt>
      <trkpt lat="43.64989" lon="7.13102">
        <ele>6.4000000953674</ele>
        <time>2011-07-20T10:50:28.000Z</time>
      </trkpt>
      <trkpt lat="43.64996" lon="7.13086">
        <ele>6</ele>
        <time>2011-07-20T10:50:32.000Z</time>
      </trkpt>
      <trkpt lat="43.65002" lon="7.13074">
        <ele>6</ele>
        <time>2011-07-20T10:50:35.000Z</time>
      </trkpt>
      <trkpt lat="43.65008" lon="7.13063">
        <ele>6.4000000953674</ele>
        <time>2011-07-20T10:50:38.000Z</time>
      </trkpt>
      <trkpt lat="43.65014" lon="7.13051">
        <ele>6.5999999046326</ele>
        <time>2011-07-20T10:50:41.000Z</time>
      </trkpt>
      <trkpt lat="43.6502" lon="7.1304">
        <ele>6.8000001907349</ele>
        <time>2011-07-20T10:50:44.000Z</time>
      </trkpt>
      <trkpt lat="43.65031" lon="7.13024">
        <ele>7.1999998092651</ele>
        <time>2011-07-20T10:50:49.000Z</time>
      </trkpt>
      <trkpt lat="43.65034" lon="7.13021">
        <ele>7.1999998092651</ele>
        <time>2011-07-20T10:50:50.000Z</time>
      </trkpt>
      <trkpt lat="43.65048" lon="7.13">
        <ele>7.4000000953674</ele>
        <time>2011-07-20T10:50:56.000Z</time>
      </trkpt>
      <trkpt lat="43.65063" lon="7.12984">
        <ele>7.5999999046326</ele>
        <time>2011-07-20T10:51:02.000Z</time>
      </trkpt>
      <trkpt lat="43.65065" lon="7.12981">
        <ele>7.5999999046326</ele>
        <time>2011-07-20T10:51:03.000Z</time>
      </trkpt>
      <trkpt lat="43.65079" lon="7.12968">
        <ele>7.8000001907349</ele>
        <time>2011-07-20T10:51:08.000Z</time>
      </trkpt>
      <trkpt lat="43.65081" lon="7.12965">
        <ele>7.8000001907349</ele>
        <time>2011-07-20T10:51:09.000Z</time>
      </trkpt>
      <trkpt lat="43.65095" lon="7.12953">
        <ele>8.1999998092651</ele>
        <time>2011-07-20T10:51:14.000Z</time>
      </trkpt>
      <trkpt lat="43.651" lon="7.12947">
        <ele>8.3999996185303</ele>
        <time>2011-07-20T10:51:16.000Z</time>
      </trkpt>
      <trkpt lat="43.65111" lon="7.12937">
        <ele>8.6000003814697</ele>
        <time>2011-07-20T10:51:20.000Z</time>
      </trkpt>
      <trkpt lat="43.65119" lon="7.12929">
        <ele>8.8000001907349</ele>
        <time>2011-07-20T10:51:23.000Z</time>
      </trkpt>
      <trkpt lat="43.65128" lon="7.12921">
        <ele>9</ele>
        <time>2011-07-20T10:51:26.000Z</time>
      </trkpt>
      <trkpt lat="43.65136" lon="7.12914">
        <ele>9.1999998092651</ele>
        <time>2011-07-20T10:51:29.000Z</time>
      </trkpt>
      <trkpt lat="43.65145" lon="7.12907">
        <ele>9.3999996185303</ele>
        <time>2011-07-20T10:51:32.000Z</time>
      </trkpt>
      <trkpt lat="43.65151" lon="7.12903">
        <ele>9.6000003814697</ele>
        <time>2011-07-20T10:51:34.000Z</time>
      </trkpt>
      <trkpt lat="43.65162" lon="7.12894">
        <ele>10</ele>
        <time>2011-07-20T10:51:38.000Z</time>
      </trkpt>
      <trkpt lat="43.65165" lon="7.12892">
        <ele>10.199999809265</ele>
        <time>2011-07-20T10:51:39.000Z</time>
      </trkpt>
      <trkpt lat="43.65179" lon="7.12878">
        <ele>10.39999961853</ele>
        <time>2011-07-20T10:51:45.000Z</time>
      </trkpt>
      <trkpt lat="43.65193" lon="7.12867">
        <ele>10.39999961853</ele>
        <time>2011-07-20T10:51:50.000Z</time>
      </trkpt>
      <trkpt lat="43.65195" lon="7.12863">
        <ele>10.60000038147</ele>
        <time>2011-07-20T10:51:51.000Z</time>
      </trkpt>
      <trkpt lat="43.65204" lon="7.12848">
        <ele>10.800000190735</ele>
        <time>2011-07-20T10:51:55.000Z</time>
      </trkpt>
      <trkpt lat="43.65209" lon="7.12841">
        <ele>10.800000190735</ele>
        <time>2011-07-20T10:51:57.000Z</time>
      </trkpt>
      <trkpt lat="43.65218" lon="7.12836">
        <ele>10.800000190735</ele>
        <time>2011-07-20T10:52:00.000Z</time>
      </trkpt>
      <trkpt lat="43.65228" lon="7.12835">
        <ele>10.800000190735</ele>
        <time>2011-07-20T10:52:03.000Z</time>
      </trkpt>
      <trkpt lat="43.65234" lon="7.12835">
        <ele>10.800000190735</ele>
        <time>2011-07-20T10:52:05.000Z</time>
      </trkpt>
      <trkpt lat="43.65247" lon="7.12832">
        <ele>11</ele>
        <time>2011-07-20T10:52:09.000Z</time>
      </trkpt>
      <trkpt lat="43.65249" lon="7.1283">
        <ele>11</ele>
        <time>2011-07-20T10:52:10.000Z</time>
      </trkpt>
      <trkpt lat="43.65256" lon="7.12816">
        <ele>11.199999809265</ele>
        <time>2011-07-20T10:52:14.000Z</time>
      </trkpt>
      <trkpt lat="43.65257" lon="7.12811">
        <ele>11.199999809265</ele>
        <time>2011-07-20T10:52:15.000Z</time>
      </trkpt>
      <trkpt lat="43.65263" lon="7.12785">
        <ele>11.60000038147</ele>
        <time>2011-07-20T10:52:21.000Z</time>
      </trkpt>
      <trkpt lat="43.65266" lon="7.12765">
        <ele>11.800000190735</ele>
        <time>2011-07-20T10:52:26.000Z</time>
      </trkpt>
      <trkpt lat="43.65266" lon="7.1276">
        <ele>12</ele>
        <time>2011-07-20T10:52:27.000Z</time>
      </trkpt>
      <trkpt lat="43.6527" lon="7.12744">
        <ele>12.60000038147</ele>
        <time>2011-07-20T10:52:31.000Z</time>
      </trkpt>
      <trkpt lat="43.65273" lon="7.12737">
        <ele>13</ele>
        <time>2011-07-20T10:52:33.000Z</time>
      </trkpt>
      <trkpt lat="43.65281" lon="7.12723">
        <ele>13.800000190735</ele>
        <time>2011-07-20T10:52:37.000Z</time>
      </trkpt>
      <trkpt lat="43.65286" lon="7.12716">
        <ele>14</ele>
        <time>2011-07-20T10:52:39.000Z</time>
      </trkpt>
      <trkpt lat="43.65298" lon="7.12701">
        <ele>14.199999809265</ele>
        <time>2011-07-20T10:52:44.000Z</time>
      </trkpt>
      <trkpt lat="43.653" lon="7.12698">
        <ele>14</ele>
        <time>2011-07-20T10:52:45.000Z</time>
      </trkpt>
      <trkpt lat="43.65316" lon="7.1268">
        <ele>13.60000038147</ele>
        <time>2011-07-20T10:52:51.000Z</time>
      </trkpt>
      <trkpt lat="43.65319" lon="7.12677">
        <ele>13.39999961853</ele>
        <time>2011-07-20T10:52:52.000Z</time>
      </trkpt>
      <trkpt lat="43.65332" lon="7.12663">
        <ele>12.60000038147</ele>
        <time>2011-07-20T10:52:57.000Z</time>
      </trkpt>
      <trkpt lat="43.6534" lon="7.12655">
        <ele>13.60000038147</ele>
        <time>2011-07-20T10:53:00.000Z</time>
      </trkpt>
      <trkpt lat="43.65349" lon="7.12648">
        <ele>14.39999961853</ele>
        <time>2011-07-20T10:53:03.000Z</time>
      </trkpt>
      <trkpt lat="43.65366" lon="7.12634">
        <ele>15.60000038147</ele>
        <time>2011-07-20T10:53:09.000Z</time>
      </trkpt>
      <trkpt lat="43.65383" lon="7.12631">
        <ele>14.800000190735</ele>
        <time>2011-07-20T10:53:14.000Z</time>
      </trkpt>
      <trkpt lat="43.65386" lon="7.12632">
        <ele>14.60000038147</ele>
        <time>2011-07-20T10:53:15.000Z</time>
      </trkpt>
      <trkpt lat="43.65394" lon="7.1264">
        <ele>13.39999961853</ele>
        <time>2011-07-20T10:53:18.000Z</time>
      </trkpt>
      <trkpt lat="43.65402" lon="7.1265">
        <ele>12.199999809265</ele>
        <time>2011-07-20T10:53:21.000Z</time>
      </trkpt>
      <trkpt lat="43.65408" lon="7.12659">
        <ele>11.39999961853</ele>
        <time>2011-07-20T10:53:24.000Z</time>
      </trkpt>
      <trkpt lat="43.65415" lon="7.12667">
        <ele>11</ele>
        <time>2011-07-20T10:53:27.000Z</time>
      </trkpt>
      <trkpt lat="43.65418" lon="7.12668">
        <ele>10.800000190735</ele>
        <time>2011-07-20T10:53:28.000Z</time>
      </trkpt>
      <trkpt lat="43.65421" lon="7.12671">
        <ele>10.800000190735</ele>
        <time>2011-07-20T10:53:29.000Z</time>
      </trkpt>
      <trkpt lat="43.6543" lon="7.1268">
        <ele>10.60000038147</ele>
        <time>2011-07-20T10:53:32.000Z</time>
      </trkpt>
      <trkpt lat="43.65432" lon="7.12683">
        <ele>10.60000038147</ele>
        <time>2011-07-20T10:53:33.000Z</time>
      </trkpt>
      <trkpt lat="43.65448" lon="7.12699">
        <ele>10.199999809265</ele>
        <time>2011-07-20T10:53:39.000Z</time>
      </trkpt>
      <trkpt lat="43.65466" lon="7.12709">
        <ele>10</ele>
        <time>2011-07-20T10:53:45.000Z</time>
      </trkpt>
      <trkpt lat="43.65479" lon="7.12726">
        <ele>10</ele>
        <time>2011-07-20T10:53:50.000Z</time>
      </trkpt>
      <trkpt lat="43.65481" lon="7.12729">
        <ele>10</ele>
        <time>2011-07-20T10:53:51.000Z</time>
      </trkpt>
      <trkpt lat="43.65492" lon="7.12746">
        <ele>10</ele>
        <time>2011-07-20T10:53:56.000Z</time>
      </trkpt>
      <trkpt lat="43.65494" lon="7.12749">
        <ele>10</ele>
        <time>2011-07-20T10:53:57.000Z</time>
      </trkpt>
      <trkpt lat="43.65506" lon="7.12767">
        <ele>9.6000003814697</ele>
        <time>2011-07-20T10:54:02.000Z</time>
      </trkpt>
      <trkpt lat="43.65508" lon="7.1277">
        <ele>9.6000003814697</ele>
        <time>2011-07-20T10:54:03.000Z</time>
      </trkpt>
      <trkpt lat="43.6552" lon="7.12789">
        <ele>9.1999998092651</ele>
        <time>2011-07-20T10:54:09.000Z</time>
      </trkpt>
      <trkpt lat="43.65527" lon="7.12794">
        <ele>9</ele>
        <time>2011-07-20T10:54:12.000Z</time>
      </trkpt>
      <trkpt lat="43.65529" lon="7.12793">
        <ele>9</ele>
        <time>2011-07-20T10:54:13.000Z</time>
      </trkpt>
      <trkpt lat="43.65536" lon="7.12785">
        <ele>9</ele>
        <time>2011-07-20T10:54:16.000Z</time>
      </trkpt>
      <trkpt lat="43.65539" lon="7.12783">
        <ele>9</ele>
        <time>2011-07-20T10:54:17.000Z</time>
      </trkpt>
      <trkpt lat="43.65542" lon="7.12781">
        <ele>9</ele>
        <time>2011-07-20T10:54:18.000Z</time>
      </trkpt>
      <trkpt lat="43.65554" lon="7.12774">
        <ele>9</ele>
        <time>2011-07-20T10:54:22.000Z</time>
      </trkpt>
      <trkpt lat="43.65557" lon="7.12772">
        <ele>9</ele>
        <time>2011-07-20T10:54:23.000Z</time>
      </trkpt>
      <trkpt lat="43.65571" lon="7.12761">
        <ele>9</ele>
        <time>2011-07-20T10:54:28.000Z</time>
      </trkpt>
      <trkpt lat="43.65589" lon="7.12751">
        <ele>8.8000001907349</ele>
        <time>2011-07-20T10:54:34.000Z</time>
      </trkpt>
      <trkpt lat="43.65605" lon="7.12741">
        <ele>9</ele>
        <time>2011-07-20T10:54:40.000Z</time>
      </trkpt>
      <trkpt lat="43.65607" lon="7.12739">
        <ele>9</ele>
        <time>2011-07-20T10:54:41.000Z</time>
      </trkpt>
      <trkpt lat="43.65619" lon="7.1273">
        <ele>9</ele>
        <time>2011-07-20T10:54:45.000Z</time>
      </trkpt>
      <trkpt lat="43.65624" lon="7.12726">
        <ele>9</ele>
        <time>2011-07-20T10:54:47.000Z</time>
      </trkpt>
      <trkpt lat="43.65635" lon="7.12716">
        <ele>9</ele>
        <time>2011-07-20T10:54:51.000Z</time>
      </trkpt>
      <trkpt lat="43.6564" lon="7.1271">
        <ele>9</ele>
        <time>2011-07-20T10:54:53.000Z</time>
      </trkpt>
      <trkpt lat="43.65648" lon="7.12701">
        <ele>9</ele>
        <time>2011-07-20T10:54:56.000Z</time>
      </trkpt>
      <trkpt lat="43.65655" lon="7.12692">
        <ele>9</ele>
        <time>2011-07-20T10:54:59.000Z</time>
      </trkpt>
      <trkpt lat="43.65663" lon="7.12682">
        <ele>9</ele>
        <time>2011-07-20T10:55:02.000Z</time>
      </trkpt>
      <trkpt lat="43.6567" lon="7.12673">
        <ele>9</ele>
        <time>2011-07-20T10:55:05.000Z</time>
      </trkpt>
      <trkpt lat="43.65678" lon="7.12664">
        <ele>9.3999996185303</ele>
        <time>2011-07-20T10:55:08.000Z</time>
      </trkpt>
      <trkpt lat="43.65685" lon="7.12656">
        <ele>9.8000001907349</ele>
        <time>2011-07-20T10:55:11.000Z</time>
      </trkpt>
      <trkpt lat="43.65695" lon="7.12644">
        <ele>10.39999961853</ele>
        <time>2011-07-20T10:55:15.000Z</time>
      </trkpt>
      <trkpt lat="43.65699" lon="7.12639">
        <ele>10.60000038147</ele>
        <time>2011-07-20T10:55:17.000Z</time>
      </trkpt>
      <trkpt lat="43.65701" lon="7.1263">
        <ele>10.800000190735</ele>
        <time>2011-07-20T10:55:19.000Z</time>
      </trkpt>
      <trkpt lat="43.65695" lon="7.12619">
        <ele>10.800000190735</ele>
        <time>2011-07-20T10:55:22.000Z</time>
      </trkpt>
      <trkpt lat="43.65693" lon="7.12615">
        <ele>10.800000190735</ele>
        <time>2011-07-20T10:55:23.000Z</time>
      </trkpt>
      <trkpt lat="43.65691" lon="7.12612">
        <ele>10.800000190735</ele>
        <time>2011-07-20T10:55:24.000Z</time>
      </trkpt>
      <trkpt lat="43.65682" lon="7.12598">
        <ele>11</ele>
        <time>2011-07-20T10:55:28.000Z</time>
      </trkpt>
      <trkpt lat="43.65679" lon="7.12594">
        <ele>11</ele>
        <time>2011-07-20T10:55:29.000Z</time>
      </trkpt>
      <trkpt lat="43.65668" lon="7.12577">
        <ele>11</ele>
        <time>2011-07-20T10:55:34.000Z</time>
      </trkpt>
      <trkpt lat="43.65665" lon="7.12574">
        <ele>11</ele>
        <time>2011-07-20T10:55:35.000Z</time>
      </trkpt>
      <trkpt lat="43.65654" lon="7.12556">
        <ele>11</ele>
        <time>2011-07-20T10:55:40.000Z</time>
      </trkpt>
      <trkpt lat="43.65652" lon="7.12553">
        <ele>11</ele>
        <time>2011-07-20T10:55:41.000Z</time>
      </trkpt>
      <trkpt lat="43.65642" lon="7.12539">
        <ele>11</ele>
        <time>2011-07-20T10:55:45.000Z</time>
      </trkpt>
      <trkpt lat="43.65637" lon="7.12531">
        <ele>11</ele>
        <time>2011-07-20T10:55:47.000Z</time>
      </trkpt>
      <trkpt lat="43.65634" lon="7.12523">
        <ele>11</ele>
        <time>2011-07-20T10:55:49.000Z</time>
      </trkpt>
      <trkpt lat="43.65635" lon="7.12519">
        <ele>11</ele>
        <time>2011-07-20T10:55:50.000Z</time>
      </trkpt>
      <trkpt lat="43.65639" lon="7.12507">
        <ele>11</ele>
        <time>2011-07-20T10:55:53.000Z</time>
      </trkpt>
      <trkpt lat="43.65641" lon="7.12504">
        <ele>11</ele>
        <time>2011-07-20T10:55:54.000Z</time>
      </trkpt>
      <trkpt lat="43.65643" lon="7.12501">
        <ele>11</ele>
        <time>2011-07-20T10:55:55.000Z</time>
      </trkpt>
      <trkpt lat="43.65644" lon="7.12493">
        <ele>11.199999809265</ele>
        <time>2011-07-20T10:55:57.000Z</time>
      </trkpt>
      <trkpt lat="43.65642" lon="7.12488">
        <ele>11.39999961853</ele>
        <time>2011-07-20T10:55:58.000Z</time>
      </trkpt>
      <trkpt lat="43.6564" lon="7.12484">
        <ele>11.60000038147</ele>
        <time>2011-07-20T10:55:59.000Z</time>
      </trkpt>
      <trkpt lat="43.65634" lon="7.12463">
        <ele>12.39999961853</ele>
        <time>2011-07-20T10:56:04.000Z</time>
      </trkpt>
      <trkpt lat="43.65632" lon="7.12459">
        <ele>12.800000190735</ele>
        <time>2011-07-20T10:56:05.000Z</time>
      </trkpt>
      <trkpt lat="43.65629" lon="7.12442">
        <ele>13.60000038147</ele>
        <time>2011-07-20T10:56:09.000Z</time>
      </trkpt>
      <trkpt lat="43.65628" lon="7.12433">
        <ele>14</ele>
        <time>2011-07-20T10:56:11.000Z</time>
      </trkpt>
      <trkpt lat="43.65626" lon="7.12415">
        <ele>14.800000190735</ele>
        <time>2011-07-20T10:56:15.000Z</time>
      </trkpt>
      <trkpt lat="43.65625" lon="7.12407">
        <ele>15</ele>
        <time>2011-07-20T10:56:17.000Z</time>
      </trkpt>
      <trkpt lat="43.65624" lon="7.12397">
        <ele>15.39999961853</ele>
        <time>2011-07-20T10:56:19.000Z</time>
      </trkpt>
      <trkpt lat="43.65622" lon="7.1238">
        <ele>15.800000190735</ele>
        <time>2011-07-20T10:56:23.000Z</time>
      </trkpt>
      <trkpt lat="43.65619" lon="7.12372">
        <ele>16</ele>
        <time>2011-07-20T10:56:25.000Z</time>
      </trkpt>
      <trkpt lat="43.65608" lon="7.12363">
        <ele>17</ele>
        <time>2011-07-20T10:56:29.000Z</time>
      </trkpt>
      <trkpt lat="43.6559" lon="7.12351">
        <ele>18.799999237061</ele>
        <time>2011-07-20T10:56:35.000Z</time>
      </trkpt>
      <trkpt lat="43.65592" lon="7.12338">
        <ele>19</ele>
        <time>2011-07-20T10:56:38.000Z</time>
      </trkpt>
      <trkpt lat="43.65595" lon="7.1233">
        <ele>19.200000762939</ele>
        <time>2011-07-20T10:56:40.000Z</time>
      </trkpt>
      <trkpt lat="43.65596" lon="7.12325">
        <ele>19.200000762939</ele>
        <time>2011-07-20T10:56:41.000Z</time>
      </trkpt>
      <trkpt lat="43.65599" lon="7.12312">
        <ele>19.60000038147</ele>
        <time>2011-07-20T10:56:44.000Z</time>
      </trkpt>
      <trkpt lat="43.65601" lon="7.12298">
        <ele>20</ele>
        <time>2011-07-20T10:56:47.000Z</time>
      </trkpt>
      <trkpt lat="43.65603" lon="7.1229">
        <ele>20.200000762939</ele>
        <time>2011-07-20T10:56:49.000Z</time>
      </trkpt>
      <trkpt lat="43.65607" lon="7.12271">
        <ele>20.60000038147</ele>
        <time>2011-07-20T10:56:53.000Z</time>
      </trkpt>
      <trkpt lat="43.65612" lon="7.12243">
        <ele>20.799999237061</ele>
        <time>2011-07-20T10:56:59.000Z</time>
      </trkpt>
      <trkpt lat="43.65618" lon="7.12215">
        <ele>20.200000762939</ele>
        <time>2011-07-20T10:57:05.000Z</time>
      </trkpt>
      <trkpt lat="43.65624" lon="7.12192">
        <ele>19.39999961853</ele>
        <time>2011-07-20T10:57:10.000Z</time>
      </trkpt>
      <trkpt lat="43.65625" lon="7.12188">
        <ele>19.39999961853</ele>
        <time>2011-07-20T10:57:11.000Z</time>
      </trkpt>
      <trkpt lat="43.6563" lon="7.12166">
        <ele>18.60000038147</ele>
        <time>2011-07-20T10:57:16.000Z</time>
      </trkpt>
      <trkpt lat="43.65631" lon="7.12162">
        <ele>18.39999961853</ele>
        <time>2011-07-20T10:57:17.000Z</time>
      </trkpt>
      <trkpt lat="43.6564" lon="7.12137">
        <ele>16.799999237061</ele>
        <time>2011-07-20T10:57:23.000Z</time>
      </trkpt>
      <trkpt lat="43.65651" lon="7.12112">
        <ele>15.199999809265</ele>
        <time>2011-07-20T10:57:29.000Z</time>
      </trkpt>
      <trkpt lat="43.65658" lon="7.12097">
        <ele>14.60000038147</ele>
        <time>2011-07-20T10:57:33.000Z</time>
      </trkpt>
      <trkpt lat="43.65663" lon="7.12091">
        <ele>14.199999809265</ele>
        <time>2011-07-20T10:57:35.000Z</time>
      </trkpt>
      <trkpt lat="43.65673" lon="7.12075">
        <ele>14.199999809265</ele>
        <time>2011-07-20T10:57:39.000Z</time>
      </trkpt>
      <trkpt lat="43.65676" lon="7.12072">
        <ele>14.39999961853</ele>
        <time>2011-07-20T10:57:40.000Z</time>
      </trkpt>
      <trkpt lat="43.65685" lon="7.12069">
        <ele>14.800000190735</ele>
        <time>2011-07-20T10:57:43.000Z</time>
      </trkpt>
      <trkpt lat="43.65695" lon="7.1207">
        <ele>15.199999809265</ele>
        <time>2011-07-20T10:57:46.000Z</time>
      </trkpt>
      <trkpt lat="43.65698" lon="7.12069">
        <ele>15.199999809265</ele>
        <time>2011-07-20T10:57:47.000Z</time>
      </trkpt>
      <trkpt lat="43.6571" lon="7.12063">
        <ele>15.800000190735</ele>
        <time>2011-07-20T10:57:51.000Z</time>
      </trkpt>
      <trkpt lat="43.65712" lon="7.1206">
        <ele>16</ele>
        <time>2011-07-20T10:57:52.000Z</time>
      </trkpt>
      <trkpt lat="43.65724" lon="7.12046">
        <ele>16.799999237061</ele>
        <time>2011-07-20T10:57:57.000Z</time>
      </trkpt>
      <trkpt lat="43.65727" lon="7.12043">
        <ele>16.799999237061</ele>
        <time>2011-07-20T10:57:58.000Z</time>
      </trkpt>
      <trkpt lat="43.65733" lon="7.12039">
        <ele>17.200000762939</ele>
        <time>2011-07-20T10:58:00.000Z</time>
      </trkpt>
      <trkpt lat="43.6574" lon="7.12039">
        <ele>17.60000038147</ele>
        <time>2011-07-20T10:58:02.000Z</time>
      </trkpt>
      <trkpt lat="43.65746" lon="7.12038">
        <ele>17.799999237061</ele>
        <time>2011-07-20T10:58:04.000Z</time>
      </trkpt>
      <trkpt lat="43.65759" lon="7.12037">
        <ele>17.60000038147</ele>
        <time>2011-07-20T10:58:08.000Z</time>
      </trkpt>
      <trkpt lat="43.65765" lon="7.12036">
        <ele>17.200000762939</ele>
        <time>2011-07-20T10:58:10.000Z</time>
      </trkpt>
      <trkpt lat="43.65783" lon="7.12033">
        <ele>16.200000762939</ele>
        <time>2011-07-20T10:58:15.000Z</time>
      </trkpt>
      <trkpt lat="43.658" lon="7.12024">
        <ele>15.60000038147</ele>
        <time>2011-07-20T10:58:20.000Z</time>
      </trkpt>
      <trkpt lat="43.65803" lon="7.12022">
        <ele>15.39999961853</ele>
        <time>2011-07-20T10:58:21.000Z</time>
      </trkpt>
      <trkpt lat="43.65818" lon="7.1201">
        <ele>14.60000038147</ele>
        <time>2011-07-20T10:58:26.000Z</time>
      </trkpt>
      <trkpt lat="43.65821" lon="7.12008">
        <ele>14.60000038147</ele>
        <time>2011-07-20T10:58:27.000Z</time>
      </trkpt>
      <trkpt lat="43.65836" lon="7.11993">
        <ele>13.800000190735</ele>
        <time>2011-07-20T10:58:32.000Z</time>
      </trkpt>
      <trkpt lat="43.65849" lon="7.11978">
        <ele>13.60000038147</ele>
        <time>2011-07-20T10:58:37.000Z</time>
      </trkpt>
      <trkpt lat="43.65852" lon="7.11978">
        <ele>13.60000038147</ele>
        <time>2011-07-20T10:58:38.000Z</time>
      </trkpt>
      <trkpt lat="43.65855" lon="7.1198">
        <ele>13.60000038147</ele>
        <time>2011-07-20T10:58:39.000Z</time>
      </trkpt>
      <trkpt lat="43.65859" lon="7.11988">
        <ele>13.800000190735</ele>
        <time>2011-07-20T10:58:41.000Z</time>
      </trkpt>
      <trkpt lat="43.65863" lon="7.11997">
        <ele>13.800000190735</ele>
        <time>2011-07-20T10:58:43.000Z</time>
      </trkpt>
      <trkpt lat="43.65867" lon="7.12011">
        <ele>14</ele>
        <time>2011-07-20T10:58:46.000Z</time>
      </trkpt>
      <trkpt lat="43.65864" lon="7.1202">
        <ele>14.199999809265</ele>
        <time>2011-07-20T10:58:48.000Z</time>
      </trkpt>
      <trkpt lat="43.65861" lon="7.12024">
        <ele>14.199999809265</ele>
        <time>2011-07-20T10:58:49.000Z</time>
      </trkpt>
      <trkpt lat="43.65856" lon="7.1203">
        <ele>14.199999809265</ele>
        <time>2011-07-20T10:58:51.000Z</time>
      </trkpt>
    </trkseg>
  </trk>
</gpx>